User Preferences

Timezone
Units
Lat/Lon format
Defaults

Geo and time bounds

208 - TORREY PINES NORTH, CA   Status:DECOMMISSIONED   Notice:07/22/2014 Station decommissioned
1440 records
Date
(UTC)
Hs
(ft)
Tp
(s)
Dp
(deg)
Ta
(s)
SST
(F)
Current sp
(kt)
Current dir
(deg)
2014-06-30 23:30 3.90 14.29 254 8.57 70.2 0.14 202.0
2014-06-30 23:00 4.13 11.76 278 8.83 70.2 0.27 204.0
2014-06-30 22:30 3.90 15.38 223 8.41 70.0 0.08 158.0
2014-06-30 22:00 4.46 12.50 270 9.15 70.0 0.21 192.0
2014-06-30 21:30 4.20 9.09 280 8.83 69.8 0.21 197.0
2014-06-30 21:00 4.49 12.50 274 9.16 69.8 0.23 191.0
2014-06-30 20:30 3.84 13.33 268 8.87 69.6 0.14 183.0
2014-06-30 20:00 3.61 13.33 276 8.72 69.6 0.14 155.0
2014-06-30 19:30 3.64 13.33 279 8.63 69.6 0.12 192.0
2014-06-30 19:00 3.90 12.50 251 8.79 69.6 0.08 206.0
2014-06-30 18:30 3.90 13.33 283 8.82 69.6 0.10 174.0
2014-06-30 18:00 4.04 13.33 286 9.10 69.6 0.10 190.0
2014-06-30 17:30 3.84 12.50 280 9.21 69.4 0.16 203.0
2014-06-30 17:00 3.74 13.33 280 8.95 69.4 0.14 199.0
2014-06-30 16:30 3.64 13.33 282 8.94 69.3 0.12 174.0
2014-06-30 16:00 4.13 13.33 277 9.62 69.4 0.12 220.0
2014-06-30 15:30 4.27 15.38 222 9.89 69.4 0.14 212.0
2014-06-30 15:00 3.87 10.53 272 8.98 69.4 0.14 214.0
2014-06-30 14:30 4.07 13.33 275 9.56 69.4 0.16 224.0
2014-06-30 14:00 4.36 13.33 274 10.05 69.4 0.12 178.0
2014-06-30 13:30 3.90 12.50 275 9.38 69.4 0.10 266.0
2014-06-30 13:00 4.10 11.76 279 9.79 69.4 0.08 236.0
2014-06-30 12:30 4.04 15.38 238 9.58 69.4 0.10 214.0
2014-06-30 12:00 4.20 12.50 270 9.66 69.4 0.21 237.0
2014-06-30 11:30 3.97 13.33 279 9.67 69.4 0.27 217.0
2014-06-30 11:00 3.77 13.33 260 9.16 69.4 0.47 209.0
2014-06-30 10:30 3.90 15.38 229 9.37 69.4 0.25 225.0
2014-06-30 10:00 3.81 15.38 236 9.32 69.4 0.23 186.0
2014-06-30 09:30 3.77 16.67 214 9.23 69.4 0.41 202.0
2014-06-30 09:00 3.61 16.67 215 8.95 69.3 0.25 196.0
2014-06-30 08:30 4.04 16.67 217 9.85 69.1 0.21 179.0
2014-06-30 08:00 3.67 16.67 225 8.97 69.1 0.25 198.0
2014-06-30 07:30 3.77 16.67 220 9.21 69.1 0.19 199.0
2014-06-30 07:00 3.22 16.67 208 8.07 69.1 0.23 208.0
2014-06-30 06:30 3.38 13.33 264 8.54 69.1 0.12 207.0
2014-06-30 06:00 3.28 14.29 277 8.16 69.1 0.06 189.0
2014-06-30 05:30 3.44 16.67 214 8.46 69.1 0.04 271.0
2014-06-30 05:00 3.28 16.67 218 8.25 69.1 0.23 210.0
2014-06-30 04:30 3.31 16.67 216 7.73 69.1 0.19 199.0
2014-06-30 04:00 3.58 16.67 216 7.93 69.1 0.19 194.0
2014-06-30 03:30 3.54 16.67 211 7.62 69.1 0.19 203.0
2014-06-30 03:00 3.54 16.67 214 8.07 69.1 0.25 183.0
2014-06-30 02:30 3.15 16.67 214 7.11 69.3 0.16 175.0
2014-06-30 02:00 3.25 16.67 205 6.91 69.3 0.10 155.0
2014-06-30 01:30 3.28 16.67 226 6.89 69.3 0.21 180.0
2014-06-30 01:00 3.35 16.67 219 6.95 69.3 0.19 190.0
2014-06-30 00:30 3.38 16.67 217 6.90 69.4 0.23 190.0
2014-06-30 00:00 3.22 16.67 220 6.97 69.4 0.25 187.0
2014-06-29 23:30 3.35 16.67 218 6.88 69.6 0.12 123.0
2014-06-29 23:00 3.12 16.67 216 6.36 69.6 0.29 165.0
2014-06-29 22:30 3.48 16.67 220 7.32 69.6 0.17 117.0
2014-06-29 22:00 3.44 16.67 226 7.14 69.6 0.17 117.0
2014-06-29 21:30 3.22 16.67 225 7.29 69.6 0.21 167.0
2014-06-29 21:00 3.15 16.67 232 6.93 69.6 0.23 143.0
2014-06-29 20:30 3.05 16.67 226 6.54 69.6 0.16 158.0
2014-06-29 20:00 3.18 16.67 230 6.94 69.6 0.06 103.0
2014-06-29 19:30 3.38 16.67 226 7.35 69.6 0.14 183.0
2014-06-29 19:00 3.31 16.67 224 6.82 69.4 0.06 229.0
2014-06-29 18:30 3.22 16.67 228 7.03 69.4 0.04 103.0
2014-06-29 18:00 3.28 16.67 220 7.69 69.3 0.06 195.0
2014-06-29 17:30 3.25 16.67 219 7.45 69.3 0.08 317.0
2014-06-29 17:00 3.41 16.67 218 8.00 69.1 0.00 87.0
2014-06-29 16:30 2.99 16.67 223 7.29 69.1 0.00 212.0
2014-06-29 16:00 3.15 16.67 228 7.08 69.1 0.08 240.0
2014-06-29 15:30 3.22 16.67 226 7.20 69.1 0.06 288.0
2014-06-29 15:00 3.44 16.67 224 7.65 69.1 0.12 254.0
2014-06-29 14:30 3.31 18.18 223 7.19 69.1 0.08 222.0
2014-06-29 14:00 3.35 18.18 225 6.98 69.1 0.14 218.0
2014-06-29 13:30 3.48 18.18 225 7.31 69.1 0.23 213.0
2014-06-29 13:00 3.54 18.18 217 7.27 69.1 0.17 207.0
2014-06-29 12:30 3.58 18.18 219 7.51 69.1 0.29 207.0
2014-06-29 12:00 3.44 18.18 231 6.83 69.3 0.37 208.0
2014-06-29 11:30 3.61 7.69 285 6.84 69.3 0.19 224.0
2014-06-29 11:00 3.54 18.18 228 6.70 69.1 0.29 214.0
2014-06-29 10:30 3.58 7.69 284 6.79 69.1 0.21 200.0
2014-06-29 10:00 3.48 18.18 232 6.95 69.3 0.19 192.0
2014-06-29 09:30 3.44 8.00 275 7.04 69.3 0.16 205.0
2014-06-29 09:00 3.38 18.18 225 7.03 69.3 0.17 209.0
2014-06-29 08:30 3.15 18.18 215 6.82 69.3 0.19 201.0
2014-06-29 08:00 3.28 18.18 221 7.28 69.3 0.12 188.0
2014-06-29 07:30 3.05 18.18 222 7.00 69.3 0.14 231.0
2014-06-29 07:00 3.22 18.18 226 6.98 69.3 0.21 201.0
2014-06-29 06:30 3.38 18.18 219 8.00 69.3 0.19 209.0
2014-06-29 06:00 3.08 18.18 223 7.50 69.3 0.21 186.0
2014-06-29 05:30 2.85 18.18 213 7.19 69.3 0.06 168.0
2014-06-29 05:00 3.15 18.18 229 8.15 69.3 0.21 203.0
2014-06-29 04:30 2.82 18.18 228 7.40 69.1 0.37 200.0
2014-06-29 04:00 3.12 18.18 219 7.66 69.1 0.29 187.0
2014-06-29 03:30 2.85 18.18 214 6.90 69.1 0.31 187.0
2014-06-29 03:00 2.85 18.18 221 7.20 69.1 0.35 199.0
2014-06-29 02:30 2.69 18.18 221 6.48 69.1 0.39 197.0
2014-06-29 02:00 2.82 18.18 217 6.51 69.3 0.31 189.0
2014-06-29 01:30 3.12 18.18 213 7.01 69.3 0.33 179.0
2014-06-29 01:00 2.92 7.14 280 6.43 69.4 0.35 188.0
2014-06-29 00:30 3.02 18.18 226 6.33 69.6 0.21 166.0
2014-06-29 00:00 2.95 14.29 195 6.40 69.6 0.27 151.0
2014-06-28 23:30 3.05 7.14 276 6.22 69.6 0.08 136.0
2014-06-28 23:00 3.12 18.18 219 6.31 69.8 0.17 133.0
2014-06-28 22:30 3.25 7.41 283 6.40 69.8 0.17 123.0
2014-06-28 22:00 3.31 18.18 215 6.85 69.8 0.14 126.0
2014-06-28 21:30 3.22 14.29 206 6.36 70.0 0.16 143.0
2014-06-28 21:00 3.12 18.18 218 6.79 69.8 0.17 134.0
2014-06-28 20:30 3.28 7.41 284 6.53 69.8 0.08 129.0
2014-06-28 20:00 3.64 7.41 285 6.88 69.8 0.06 83.0
2014-06-28 19:30 3.25 7.69 289 6.88 69.8 0.08 110.0
2014-06-28 19:00 3.15 7.41 284 6.69 69.8 0.08 88.0
2014-06-28 18:30 3.18 7.14 282 6.83 69.6 0.08 29.0
2014-06-28 18:00 3.22 7.41 285 7.28 69.6 0.06 218.0
2014-06-28 17:30 3.48 14.29 202 7.23 69.6 0.10 204.0
2014-06-28 17:00 3.22 7.41 293 7.04 69.6 0.06 123.0
2014-06-28 16:30 3.48 7.69 286 7.45 69.6 0.06 181.0
2014-06-28 16:00 3.41 7.69 286 7.08 69.6 0.21 222.0
2014-06-28 15:30 3.58 14.29 201 7.09 69.4 0.04 185.0
2014-06-28 15:00 3.48 8.00 287 6.94 69.6 0.12 231.0
2014-06-28 14:30 3.35 14.29 200 6.91 69.6 0.06 160.0
2014-06-28 14:00 3.74 7.14 284 7.06 69.4 0.04 187.0
2014-06-28 13:30 3.67 7.69 285 6.88 69.4 0.10 207.0
2014-06-28 13:00 3.44 7.69 284 6.60 69.6 0.23 214.0
2014-06-28 12:30 3.71 7.41 280 6.85 69.6 0.25 219.0
2014-06-28 12:00 3.84 7.14 282 6.90 69.4 0.14 203.0
2014-06-28 11:30 3.84 7.41 280 6.77 69.4 0.27 196.0
2014-06-28 11:00 3.58 7.69 285 6.57 69.6 0.35 211.0
2014-06-28 10:30 3.71 7.41 280 6.55 69.6 0.31 210.0
2014-06-28 10:00 3.64 7.41 282 6.57 69.6 0.31 214.0
2014-06-28 09:30 3.64 7.41 281 6.62 69.6 0.19 221.0
2014-06-28 09:00 3.51 14.29 205 6.78 69.6 0.17 211.0
2014-06-28 08:30 3.44 7.41 288 6.69 69.6 0.19 200.0
2014-06-28 08:00 3.28 7.69 285 6.62 69.4 0.19 208.0
2014-06-28 07:30 3.58 7.41 277 6.70 69.4 0.23 221.0
2014-06-28 07:00 3.35 7.41 281 6.76 69.4 0.23 209.0
2014-06-28 06:30 3.35 7.41 287 6.65 69.4 0.33 220.0
2014-06-28 06:00 3.35 7.69 283 6.46 69.4 0.37 229.0
2014-06-28 05:30 3.35 15.38 196 6.88 69.4 0.45 223.0
2014-06-28 05:00 3.38 15.38 195 6.83 69.4 0.47 212.0
2014-06-28 04:30 3.31 15.38 191 6.87 69.4 0.41 202.0
2014-06-28 04:00 3.35 7.14 282 6.55 69.3 0.49 207.0
2014-06-28 03:30 3.41 15.38 197 6.76 69.3 0.39 196.0
2014-06-28 03:00 3.28 7.69 283 6.79 69.3 0.39 193.0
2014-06-28 02:30 3.44 7.41 286 7.00 69.3 0.47 187.0
2014-06-28 02:00 3.58 7.69 286 6.67 69.3 0.35 195.0
2014-06-28 01:30 3.44 7.69 286 6.94 69.3 0.51 181.0
2014-06-28 01:00 3.44 8.00 286 6.57 69.3 0.52 170.0
2014-06-28 00:30 3.41 15.38 200 6.70 69.3 0.47 157.0
2014-06-28 00:00 3.90 8.00 281 6.77 69.3 0.39 160.0
2014-06-27 23:30 3.90 8.00 288 6.79 69.4 0.33 135.0
2014-06-27 23:00 3.61 7.69 289 6.63 69.4 0.35 147.0
2014-06-27 22:30 4.13 8.00 289 6.97 69.3 0.31 129.0
2014-06-27 22:00 3.77 8.00 288 6.49 69.1 0.33 169.0
2014-06-27 21:30 4.10 8.00 287 6.69 69.1 0.27 108.0
2014-06-27 21:00 4.13 7.69 289 6.49 69.3 0.21 124.0
2014-06-27 20:30 4.23 8.00 287 6.41 69.3 0.23 107.0
2014-06-27 20:00 4.20 8.00 291 6.37 69.3 0.14 144.0
2014-06-27 19:30 4.30 7.69 284 6.42 69.3 0.14 138.0
2014-06-27 19:00 4.13 7.14 286 6.43 69.1 0.19 147.0
2014-06-27 18:30 4.59 7.41 287 6.47 69.1 0.10 119.0
2014-06-27 18:00 4.17 8.00 285 6.36 69.1 0.08 125.0
2014-06-27 17:30 4.63 8.33 287 6.56 69.1 0.08 145.0
2014-06-27 17:00 4.69 8.00 290 6.56 69.1 0.06 81.0
2014-06-27 16:30 4.43 8.00 287 6.40 69.3 0.04 127.0
2014-06-27 16:00 4.46 7.69 294 6.46 69.3 0.08 195.0
2014-06-27 15:30 4.40 7.41 290 6.53 69.3 0.04 192.0
2014-06-27 15:00 4.40 8.00 291 6.58 69.3 0.10 133.0
2014-06-27 14:30 4.07 7.69 293 6.24 69.3 0.02 126.0
2014-06-27 14:00 4.27 7.69 289 6.22 69.4 0.12 183.0
2014-06-27 13:30 4.07 7.14 290 6.19 69.4 0.23 195.0
2014-06-27 13:00 4.43 7.41 289 6.49 69.4 0.21 198.0
2014-06-27 12:30 4.36 7.41 289 6.44 69.4 0.16 218.0
2014-06-27 12:00 4.30 7.14 292 6.66 69.4 0.12 178.0
2014-06-27 11:30 4.20 7.69 286 6.44 69.6 0.23 171.0
2014-06-27 11:00 4.33 7.41 288 6.66 69.6 0.08 169.0
2014-06-27 10:30 4.36 7.69 284 6.46 69.6 0.17 194.0
2014-06-27 10:00 4.17 7.69 284 6.33 69.6 0.12 203.0
2014-06-27 09:30 3.94 7.69 286 6.07 69.6 0.21 200.0
2014-06-27 09:00 3.67 7.69 286 6.27 69.6 0.21 186.0
2014-06-27 08:30 3.38 16.67 194 6.09 69.6 0.17 207.0
2014-06-27 08:00 3.44 7.41 280 6.11 69.6 0.23 218.0
2014-06-27 07:30 3.25 7.14 284 5.90 69.6 0.21 195.0
2014-06-27 07:00 3.35 15.38 203 6.54 69.6 0.23 211.0
2014-06-27 06:30 3.25 16.67 208 6.65 69.6 0.35 212.0
2014-06-27 06:00 2.99 7.41 286 6.60 69.6 0.29 218.0
2014-06-27 05:30 3.15 16.67 203 7.12 69.6 0.54 209.0
2014-06-27 05:00 3.22 7.69 283 6.76 69.6 0.51 208.0
2014-06-27 04:30 3.22 16.67 196 7.06 69.6 0.39 208.0
2014-06-27 04:00 3.28 16.67 199 7.06 69.4 0.41 196.0
2014-06-27 03:30 3.51 7.41 287 6.88 69.4 0.41 197.0
2014-06-27 03:00 3.51 8.00 285 7.25 69.3 0.47 186.0
2014-06-27 02:30 3.51 7.69 285 6.87 69.4 0.58 184.0
2014-06-27 02:00 3.28 7.41 280 6.96 69.6 0.64 175.0
2014-06-27 01:30 3.35 16.67 200 7.03 69.6 0.58 177.0
2014-06-27 01:00 3.51 7.69 280 7.17 69.6 0.47 188.0
2014-06-27 00:30 3.58 16.67 199 7.35 69.6 0.66 155.0
2014-06-27 00:00 3.64 7.69 280 7.41 69.8 0.54 155.0
2014-06-26 23:30 3.54 16.67 202 7.74 69.8 0.60 159.0
2014-06-26 23:00 3.81 8.00 285 7.45 69.8 0.35 166.0
2014-06-26 22:30 3.77 7.69 287 7.21 69.6 0.27 151.0
2014-06-26 22:00 3.90 8.00 287 7.34 69.8 0.33 130.0
2014-06-26 21:30 4.10 7.69 291 7.30 69.6 0.45 120.0
2014-06-26 21:00 3.77 8.00 288 7.10 69.6 0.41 123.0
2014-06-26 20:30 3.94 16.67 198 7.40 69.4 0.35 125.0
2014-06-26 20:00 4.10 8.33 285 7.42 69.4 0.27 114.0
2014-06-26 19:30 4.00 8.00 288 7.25 69.6 0.29 118.0
2014-06-26 19:00 4.00 8.00 289 7.50 69.3 0.16 114.0
2014-06-26 18:30 4.07 8.00 284 7.14 69.1 0.16 93.0
2014-06-26 18:00 4.13 8.00 286 7.30 69.1 0.10 114.0
2014-06-26 17:30 4.00 16.67 202 7.73 69.1 0.10 86.0
2014-06-26 17:00 3.90 8.33 290 7.42 69.3 0.08 145.0
2014-06-26 16:30 3.81 16.67 198 7.52 69.1
2014-06-26 16:00 3.74 16.67 204 7.76 68.9 0.06 184.0
2014-06-26 15:30 3.58 8.70 286 7.35 68.9 0.04 168.0
2014-06-26 15:00 3.77 8.33 288 7.76 68.9 0.08 179.0
2014-06-26 14:30 3.54 7.69 287 7.34 68.9 0.12 196.0
2014-06-26 14:00 3.58 16.67 202 7.62 68.9 0.12 210.0
2014-06-26 13:30 3.54 8.70 286 7.41 68.9 0.17 202.0
2014-06-26 13:00 3.61 16.67 199 7.45 68.9 0.12 190.0
2014-06-26 12:30 3.67 8.00 290 7.41 68.9 0.21 196.0
2014-06-26 12:00 3.74 7.14 287 7.59 68.9 0.25 204.0
2014-06-26 11:30 3.94 8.33 289 7.53 68.9 0.27 197.0
2014-06-26 11:00 3.77 9.52 272 7.74 68.7 0.21 176.0
2014-06-26 10:30 3.87 8.33 287 7.81 68.7 0.19 184.0
2014-06-26 10:00 3.81 8.00 284 7.43 68.7 0.27 186.0
2014-06-26 09:30 3.90 8.70 286 7.76 68.7 0.21 180.0
2014-06-26 09:00 3.97 8.33 287 7.69 68.9 0.23 163.0
2014-06-26 08:30 4.07 8.70 284 7.73 68.9 0.21 186.0
2014-06-26 08:00 3.90 8.33 282 7.83 68.9 0.31 179.0
2014-06-26 07:30 4.04 9.52 279 7.87 68.9 0.25 215.0
2014-06-26 07:00 4.00 9.09 280 7.92 68.9 0.31 189.0
2014-06-26 06:30 3.67 8.70 280 7.46 68.9 0.21 198.0
2014-06-26 06:00 3.87 8.00 284 7.98 68.9 0.19 201.0
2014-06-26 05:30 4.17 8.70 281 7.87 68.9 0.25 190.0
2014-06-26 05:00 4.17 8.70 283 7.74 68.9 0.17 216.0
2014-06-26 04:30 4.49 9.52 277 8.15 68.9 0.33 193.0
2014-06-26 04:00 3.84 8.70 281 7.50 68.9 0.37 184.0
2014-06-26 03:30 3.94 9.09 278 7.70 69.1 0.35 178.0
2014-06-26 03:00 4.04 8.70 279 7.95 69.3 0.35 192.0
2014-06-26 02:30 3.74 9.52 277 7.79 69.4 0.39 176.0
2014-06-26 02:00 3.87 9.52 275 7.76 69.6 0.35 185.0
2014-06-26 01:30 4.00 9.52 271 8.07 69.8 0.27 186.0
2014-06-26 01:00 4.07 9.52 277 7.95 70.0 0.39 185.0
2014-06-26 00:30 3.90 9.09 277 8.00 70.2 0.35 193.0
2014-06-26 00:00 3.77 8.70 280 7.83 70.2 0.27 182.0
2014-06-25 23:30 3.90 8.33 274 7.62 70.3 0.35 171.0
2014-06-25 23:00 3.90 10.00 271 7.87 70.3 0.35 155.0
2014-06-25 22:30 3.90 10.00 273 7.73 70.5 0.23 159.0
2014-06-25 22:00 4.17 10.00 279 7.70 70.3 0.17 149.0
2014-06-25 21:30 3.81 9.09 281 7.45 70.3 0.27 152.0
2014-06-25 21:00 4.04 9.09 278 7.62 70.2 0.33 150.0
2014-06-25 20:30 4.36 10.00 272 8.00 70.0 0.21 148.0
2014-06-25 20:00 4.36 18.18 202 8.07 69.8 0.19 129.0
2014-06-25 19:30 4.72 8.33 283 7.98 69.8 0.14 104.0
2014-06-25 19:00 4.30 10.00 285 7.81 70.0 0.12 129.0
2014-06-25 18:30 4.33 10.00 284 8.07 69.8 0.04 15.0
2014-06-25 18:00 4.56 8.70 289 8.50 69.6 0.04 50.0
2014-06-25 17:30 4.30 8.33 287 8.08 69.4 0.10 54.0
2014-06-25 17:00 4.66 8.70 286 8.18 69.3 0.04 207.0
2014-06-25 16:30 4.89 8.70 286 8.34 69.1 0.02 284.0
2014-06-25 16:00 4.33 8.70 285 8.08 69.1 0.04 76.0
2014-06-25 15:30 4.63 9.52 285 8.49 69.1 0.10 346.0
2014-06-25 15:00 4.04 9.52 283 8.16 69.1 0.04 280.0
2014-06-25 14:30 4.07 9.52 283 8.10 69.1 0.08 305.0
2014-06-25 14:00 4.04 13.33 192 8.50 69.1 0.08 253.0
2014-06-25 13:30 3.61 13.33 194 8.20 69.1 0.10 221.0
2014-06-25 13:00 3.71 10.00 279 8.15 69.3 0.17 210.0
2014-06-25 12:30 3.48 8.70 286 8.44 69.3 0.27 202.0
2014-06-25 12:00 3.51 9.52 278 8.72 69.3 0.21 226.0
2014-06-25 11:30 3.31 13.33 198 8.46 69.3 0.19 219.0
2014-06-25 11:00 3.41 10.00 273 8.49 69.3 0.19 178.0
2014-06-25 10:30 3.38 13.33 195 8.61 69.4 0.21 201.0
2014-06-25 10:00 3.41 12.50 195 8.84 69.4 0.21 210.0
2014-06-25 09:30 3.35 13.33 192 9.15 69.6 0.33 187.0
2014-06-25 09:00 3.38 13.33 194 9.02 69.6 0.12 196.0
2014-06-25 08:30 3.15 13.33 189 8.73 69.4 0.04 166.0
2014-06-25 08:00 3.28 12.50 202 8.67 69.4 0.08 72.0
2014-06-25 07:30 3.12 13.33 194 8.54 69.6 0.04 6.0
2014-06-25 07:00 3.28 13.33 191 9.20 69.6 0.25 201.0
2014-06-25 06:30 3.22 13.33 196 9.29 69.6 0.35 188.0
2014-06-25 06:00 3.51 13.33 198 9.19 69.8 0.35 182.0
2014-06-25 05:30 3.38 13.33 189 8.77 69.8 0.21 189.0
2014-06-25 05:00 3.48 14.29 191 8.86 69.8 0.23 175.0
2014-06-25 04:30 3.25 13.33 201 8.90 69.8 0.25 201.0
2014-06-25 04:00 3.28 13.33 192 8.64 69.8 0.23 199.0
2014-06-25 03:30 3.41 14.29 193 8.54 69.8 0.27 186.0
2014-06-25 03:00 3.25 13.33 191 8.67 70.0 0.33 202.0
2014-06-25 02:30 3.51 12.50 194 8.51 70.2 0.33 195.0
2014-06-25 02:00 3.02 13.33 196 7.88 70.2 0.27 178.0
2014-06-25 01:30 3.31 14.29 191 8.63 70.3 0.35 181.0
2014-06-25 01:00 3.58 14.29 186 8.36 70.3 0.35 171.0
2014-06-25 00:30 2.99 13.33 195 7.30 70.5 0.35 164.0
2014-06-25 00:00 3.35 14.29 195 8.17 70.7 0.43 156.0
2014-06-24 23:30 3.08 13.33 195 7.84 70.7 0.47 163.0
2014-06-24 23:00 3.25 13.33 195 8.17 70.5 0.45 149.0
2014-06-24 22:30 3.12 14.29 198 7.76 70.5 0.49 160.0
2014-06-24 22:00 3.38 14.29 191 8.20 70.3 0.41 151.0
2014-06-24 21:30 3.51 13.33 195 8.37 70.2 0.45 147.0
2014-06-24 21:00 3.48 13.33 196 8.19 70.2 0.37 140.0
2014-06-24 20:30 3.64 14.29 191 8.54 70.0 0.47 137.0
2014-06-24 20:00 3.28 13.33 192 7.88 70.0 0.43 137.0
2014-06-24 19:30 3.51 13.33 194 8.54 69.6 0.27 134.0
2014-06-24 19:00 3.35 13.33 190 7.97 69.6 0.31 144.0
2014-06-24 18:30 3.22 11.76 205 7.79 69.4 0.16 142.0
2014-06-24 18:00 3.61 14.29 190 8.39 69.4 0.21 117.0
2014-06-24 17:30 3.48 14.29 190 8.35 69.4 0.19 156.0
2014-06-24 17:00 3.54 13.33 193 8.43 69.3 0.25 132.0
2014-06-24 16:30 3.48 13.33 196 8.34 69.1
2014-06-24 16:00 3.51 13.33 195 8.61 68.9 0.08 107.0
2014-06-24 15:30 3.58 14.29 191 8.31 68.7 0.08 99.0
2014-06-24 15:00 3.35 13.33 193 8.17 68.7 0.10 104.0
2014-06-24 14:30 3.51 14.29 191 8.27 68.9 0.10 27.0
2014-06-24 14:00 3.77 14.29 195 8.54 68.9 0.06 72.0
2014-06-24 13:30 3.35 13.33 195 8.01 68.9 0.04 107.0
2014-06-24 13:00 3.05 14.29 194 7.44 68.9 0.06 298.0
2014-06-24 12:30 3.12 14.29 195 7.65 68.9 0.12 329.0
2014-06-24 12:00 3.48 14.29 193 8.26 68.9 0.08 240.0
2014-06-24 11:30 3.31 14.29 193 8.04 68.9 0.04 258.0
2014-06-24 11:00 3.28 13.33 197 7.85 68.9 0.10 242.0
2014-06-24 10:30 3.28 14.29 194 8.08 68.9 0.12 221.0
2014-06-24 10:00 3.31 13.33 196 8.10 68.9 0.06 261.0
2014-06-24 09:30 3.38 14.29 190 7.91 68.9 0.16 208.0
2014-06-24 09:00 3.25 15.38 194 7.55 68.9 0.25 191.0
2014-06-24 08:30 3.28 14.29 193 8.00 68.9 0.23 187.0
2014-06-24 08:00 3.54 14.29 192 8.24 68.9 0.35 173.0
2014-06-24 07:30 3.48 14.29 196 8.33 68.9 0.23 190.0
2014-06-24 07:00 3.18 13.33 199 8.02 68.9 0.33 186.0
2014-06-24 06:30 3.38 14.29 194 8.68 68.9 0.29 178.0
2014-06-24 06:00 3.64 14.29 193 8.66 68.9 0.21 203.0
2014-06-24 05:30 3.35 14.29 191 8.19 69.1 0.08 194.0
2014-06-24 05:00 3.48 13.33 196 8.30 69.1 0.31 165.0
2014-06-24 04:30 3.48 14.29 197 8.28 69.1 0.29 194.0
2014-06-24 04:00 3.44 14.29 193 8.05 69.1 0.27 176.0
2014-06-24 03:30 3.28 14.29 194 8.18 69.3 0.35 160.0
2014-06-24 03:00 3.54 15.38 192 8.43 69.4 0.41 149.0
2014-06-24 02:30 3.31 12.50 193 7.79 69.6 0.35 157.0
2014-06-24 02:00 3.54 15.38 191 8.27 69.6 0.31 147.0
2014-06-24 01:30 3.48 13.33 190 7.89 69.6 0.33 156.0
2014-06-24 01:00 3.31 12.50 200 7.55 69.8 0.31 129.0
2014-06-24 00:30 3.54 13.33 195 7.86 69.6 0.23 133.0
2014-06-24 00:00 3.22 13.33 195 7.10 69.6 0.33 125.0
2014-06-23 23:30 3.48 13.33 197 7.05 69.6 0.27 128.0
2014-06-23 23:00 3.67 14.29 194 7.14 69.6 0.25 143.0
2014-06-23 22:30 3.84 8.00 284 7.36 69.6 0.23 116.0
2014-06-23 22:00 3.51 13.33 194 7.14 69.6 0.25 125.0
2014-06-23 21:30 3.74 13.33 193 7.30 69.6 0.31 104.0
2014-06-23 21:00 3.54 15.38 187 6.84 69.6 0.33 122.0
2014-06-23 20:30 3.81 13.33 196 7.12 69.4 0.25 107.0
2014-06-23 20:00 3.81 14.29 191 7.10 69.4 0.35 116.0
2014-06-23 19:30 4.30 13.33 195 7.65 69.4 0.33 120.0
2014-06-23 19:00 3.81 13.33 197 7.41 69.4 0.33 109.0
2014-06-23 18:30 3.44 13.33 195 7.81 69.4 0.17 92.0
2014-06-23 18:00 3.38 13.33 193 7.74 69.3 0.12 93.0
2014-06-23 17:30 3.51 13.33 194 7.90 69.1 0.21 119.0
2014-06-23 17:00 3.31 13.33 194 8.22 68.9 0.16 134.0
2014-06-23 16:30 3.44 8.70 284 7.88 68.9 0.17 118.0
2014-06-23 16:00 2.95 8.00 285 7.52 68.9 0.14 125.0
2014-06-23 15:30 2.92 14.29 193 7.59 68.9 0.02 119.0
2014-06-23 15:00 3.12 13.33 193 8.31 68.9 0.04 135.0
2014-06-23 14:30 2.85 14.29 188 8.14 68.9 0.02 10.0
2014-06-23 14:00 2.79 8.33 287 8.24 68.7 0.02 105.0
2014-06-23 13:30 2.79 14.29 196 8.01 68.7 0.06 73.0
2014-06-23 13:00 2.79 14.29 192 8.13 68.9 0.02 0.0
2014-06-23 12:30 2.59 14.29 198 7.73 68.9 0.04 156.0
2014-06-23 12:00 2.56 13.33 198 7.99 68.9 0.06 358.0
2014-06-23 11:30 2.59 13.33 194 7.73 68.9 0.00 248.0
2014-06-23 11:00 2.76 13.33 203 7.77 68.9 0.04 89.0
2014-06-23 10:30 2.76 14.29 195 8.03 68.9 0.06 274.0
2014-06-23 10:00 2.76 8.00 282 7.69 68.9 0.06 284.0
2014-06-23 09:30 3.12 8.33 280 8.28 68.9 0.08 313.0
2014-06-23 09:00 2.99 14.29 193 8.41 69.1 0.12 223.0
2014-06-23 08:30 2.79 8.70 283 7.75 69.1 0.17 250.0
2014-06-23 08:00 2.95 14.29 194 8.09 69.1 0.21 223.0
2014-06-23 07:30 2.92 9.09 285 8.09 69.1 0.12 218.0
2014-06-23 07:00 3.02 14.29 194 8.28 69.1 0.23 207.0
2014-06-23 06:30 2.85 14.29 196 7.94 69.1 0.25 191.0
2014-06-23 06:00 2.72 14.29 197 7.72 69.1 0.17 168.0
2014-06-23 05:30 2.69 14.29 193 7.75 69.1 0.33 175.0
2014-06-23 05:00 2.79 14.29 197 7.78 69.1 0.25 133.0
2014-06-23 04:30 2.69 14.29 199 7.72 69.1 0.21 170.0
2014-06-23 04:00 2.72 14.29 195 7.51 69.3 0.27 180.0
2014-06-23 03:30 2.79 14.29 196 7.72 69.3 0.35 164.0
2014-06-23 03:00 2.72 14.29 203 7.53 69.3 0.39 156.0
2014-06-23 02:30 2.79 14.29 194 7.67 69.6 0.33 148.0
2014-06-23 02:00 2.76 14.29 198 7.26 69.6 0.33 132.0
2014-06-23 01:30 2.66 14.29 194 7.17 69.6 0.37 125.0
2014-06-23 01:00 2.56 14.29 198 7.04 69.6 0.37 129.0
2014-06-23 00:30 2.43 14.29 195 6.87 69.6 0.39 126.0
2014-06-23 00:00 2.59 14.29 190 6.62 69.8 0.25 114.0
2014-06-22 23:30 2.85 14.29 191 6.74 69.6 0.37 115.0
2014-06-22 23:00 2.85 14.29 188 6.65 69.8 0.41 107.0
2014-06-22 22:30 3.08 14.29 193 6.90 69.8 0.35 101.0
2014-06-22 22:00 3.02 14.29 192 6.82 69.8 0.33 102.0
2014-06-22 21:30 3.15 14.29 192 6.71 69.6 0.37 92.0
2014-06-22 21:00 3.12 14.29 188 6.86 69.6 0.39 97.0
2014-06-22 20:30 3.02 9.09 286 6.76 69.3 0.39 85.0
2014-06-22 20:00 2.92 14.29 197 6.58 69.3 0.23 90.0
2014-06-22 19:30 2.89 15.38 190 6.81 69.1 0.31 86.0
2014-06-22 19:00 3.05 14.29 194 7.28 69.1 0.25 72.0
2014-06-22 18:30 2.89 8.00 284 7.10 69.1 0.37 68.0
2014-06-22 18:00 2.89 15.38 192 7.35 69.1 0.27 61.0
2014-06-22 17:30 3.08 8.70 286 7.58 69.1 0.17 71.0
2014-06-22 17:00 3.31 8.70 289 7.81 69.1 0.23 84.0
2014-06-22 16:30 3.12 8.70 286 7.65 69.1 0.17 80.0
2014-06-22 16:00 2.89 9.09 284 7.46 69.1 0.19 94.0
2014-06-22 15:30 2.85 9.09 289 7.37 69.1 0.16 76.0
2014-06-22 15:00 2.49 8.70 289 7.15 69.3 0.08 90.0
2014-06-22 14:30 2.46 8.70 290 7.05 69.3 0.06 171.0
2014-06-22 14:00 2.26 9.09 283 6.97 69.3 0.12 72.0
2014-06-22 13:30 2.23 15.38 192 7.00 69.3 0.14 45.0
2014-06-22 13:00 2.40 8.33 287 7.22 69.4 0.08 6.0
2014-06-22 12:30 2.40 9.09 277 7.28 69.4 0.06 20.0
2014-06-22 12:00 2.17 8.33 284 6.87 69.4 0.14 5.0
2014-06-22 11:30 2.20 8.70 286 6.87 69.4 0.06 310.0
2014-06-22 11:00 2.07 9.09 280 6.69 69.4 0.06 286.0
2014-06-22 10:30 2.26 8.70 283 7.15 69.4 0.06 307.0
2014-06-22 10:00 2.33 8.70 281 7.11 69.4 0.08 340.0
2014-06-22 09:30 2.53 7.69 284 7.10 69.4 0.06 259.0
2014-06-22 09:00 2.33 8.33 285 6.63 69.4 0.10 304.0
2014-06-22 08:30 2.49 8.70 282 6.88 69.3 0.02 153.0
2014-06-22 08:00 2.30 9.09 278 6.56 69.3 0.12 219.0
2014-06-22 07:30 2.30 9.52 266 6.41 69.3 0.10 178.0
2014-06-22 07:00 2.56 8.70 276 6.59 69.3 0.14 235.0
2014-06-22 06:30 2.46 9.09 271 6.49 69.3 0.12 176.0
2014-06-22 06:00 2.36 8.33 274 6.11 69.3 0.19 203.0
2014-06-22 05:30 2.40 13.33 205 6.30 69.3 0.17 198.0
2014-06-22 05:00 2.53 8.33 280 6.47 69.3 0.19 188.0
2014-06-22 04:30 2.26 14.29 205 6.12 69.3 0.08 194.0
2014-06-22 04:00 2.30 8.33 281 6.01 69.3 0.10 176.0
2014-06-22 03:30 2.49 8.00 282 6.38 69.4 0.16 165.0
2014-06-22 03:00 2.23 13.33 202 5.95 69.4 0.14 143.0
2014-06-22 02:30 2.43 8.70 278 6.14 69.6 0.14 146.0
2014-06-22 02:00 2.36 14.29 202 6.41 69.6 0.08 103.0
2014-06-22 01:30 2.23 14.29 210 6.20 69.6 0.19 114.0
2014-06-22 01:00 2.17 13.33 200 5.85 69.8 0.06 149.0
2014-06-22 00:30 2.10 13.33 192 5.75 69.8 0.12 108.0
2014-06-22 00:00 2.17 14.29 195 6.01 70.0 0.08 126.0
2014-06-21 23:30 2.13 14.29 198 5.76 69.8 0.14 85.0
2014-06-21 23:00 2.23 14.29 205 5.66 69.8 0.06 114.0
2014-06-21 22:30 2.07 13.33 198 5.50 70.0 0.08 105.0
2014-06-21 22:00 2.33 13.33 192 6.15 69.8 0.08 79.0
2014-06-21 21:30 2.30 14.29 202 6.13 70.0 0.10 91.0
2014-06-21 21:00 2.26 8.00 282 5.95 70.0 0.16 87.0
2014-06-21 20:30 2.17 13.33 190 6.09 70.2 0.14 67.0
2014-06-21 20:00 2.10 14.29 211 6.44 70.2 0.06 28.0
2014-06-21 19:30 2.17 12.50 194 6.58 70.0 0.06 111.0
2014-06-21 19:00 2.13 14.29 205 6.49 70.0 0.10 85.0
2014-06-21 18:30 2.13 14.29 209 6.85 70.0 0.08 51.0
2014-06-21 18:00 2.10 8.00 280 6.62 69.8 0.02 78.0
2014-06-21 17:30 2.10 14.29 203 6.64 69.6 0.04 25.0
2014-06-21 17:00 2.10 14.29 201 6.75 69.6 0.06 125.0
2014-06-21 16:30 2.07 13.33 200 6.67 69.6 0.10 61.0
2014-06-21 16:00 2.00 14.29 209 6.84 69.6 0.02 150.0
2014-06-21 15:30 2.00 14.29 207 6.71 69.6 0.10 27.0
2014-06-21 15:00 1.94 14.29 208 6.72 69.6 0.10 37.0
2014-06-21 14:30 1.97 14.29 207 6.79 69.6 0.10 15.0
2014-06-21 14:00 1.84 13.33 200 6.63 69.6 0.14 10.0
2014-06-21 13:30 1.87 14.29 204 6.86 69.6 0.10 356.0
2014-06-21 13:00 1.87 14.29 199 7.05 69.6 0.14 360.0
2014-06-21 12:30 1.80 14.29 209 6.78 69.6 0.08 344.0
2014-06-21 12:00 1.77 14.29 215 6.79 69.6 0.12 354.0
2014-06-21 11:30 1.94 14.29 209 7.13 69.6 0.08 354.0
2014-06-21 11:00 1.87 14.29 209 6.83 69.6 0.21 323.0
2014-06-21 10:30 1.84 14.29 207 6.52 69.6 0.19 304.0
2014-06-21 10:00 2.03 14.29 217 7.53 69.6 0.21 300.0
2014-06-21 09:30 2.03 14.29 211 7.10 69.4 0.21 282.0
2014-06-21 09:00 2.07 15.38 210 7.10 69.3 0.17 282.0
2014-06-21 08:30 1.97 15.38 210 6.70 69.3 0.14 279.0
2014-06-21 08:00 2.07 14.29 210 6.96 69.3 0.08 298.0
2014-06-21 07:30 2.20 14.29 208 7.51 69.3 0.10 264.0
2014-06-21 07:00 2.17 14.29 206 7.12 69.3 0.08 267.0
2014-06-21 06:30 2.23 14.29 208 6.86 69.3 0.08 243.0
2014-06-21 06:00 2.17 14.29 205 6.82 69.3 0.14 229.0
2014-06-21 05:30 2.17 15.38 201 6.52 69.3 0.14 239.0
2014-06-21 05:00 2.30 8.00 268 6.48 69.3 0.16 197.0
2014-06-21 04:30 2.36 14.29 203 6.63 69.4 0.08 155.0
2014-06-21 04:00 2.40 14.29 209 6.45 69.4 0.12 157.0
2014-06-21 03:30 2.30 14.29 205 6.57 69.4 0.16 145.0
2014-06-21 03:00 2.30 15.38 200 6.62 69.6 0.16 171.0
2014-06-21 02:30 2.30 15.38 197 6.27 69.8 0.12 157.0
2014-06-21 02:00 2.30 15.38 203 6.38 70.0 0.19 139.0
2014-06-21 01:30 2.43 15.38 205 6.43 70.2 0.14 138.0
2014-06-21 01:00 2.49 8.33 273 6.41 70.2 0.12 126.0
2014-06-21 00:30 2.56 8.33 279 6.45 70.5 0.21 122.0
2014-06-21 00:00 2.43 15.38 208 6.26 70.5 0.19 100.0
2014-06-20 23:30 2.56 8.33 272 6.13 70.5 0.23 106.0
2014-06-20 23:00 2.56 15.38 202 6.68 70.7 0.21 101.0
2014-06-20 22:30 2.49 15.38 202 6.55 70.5 0.19 99.0
2014-06-20 22:00 2.43 15.38 205 6.37 70.7 0.21 78.0
2014-06-20 21:30 2.49 15.38 202 6.35 70.5 0.27 85.0
2014-06-20 21:00 2.43 14.29 204 6.28 70.3 0.12 93.0
2014-06-20 20:30 2.53 15.38 206 6.32 70.3 0.21 68.0
2014-06-20 20:00 2.66 15.38 207 6.35 70.3 0.21 88.0
2014-06-20 19:30 2.49 15.38 201 6.19 70.2 0.23 96.0
2014-06-20 19:00 2.69 15.38 199 6.87 70.3 0.16 78.0
2014-06-20 18:30 2.49 15.38 208 6.46 70.7 0.14 81.0
2014-06-20 18:00 2.43 15.38 208 6.65 71.8 0.10 65.0
2014-06-20 17:30 2.66 15.38 203 6.92 71.1 0.14 71.0
2014-06-20 17:00 2.62 15.38 208 6.74 70.0 0.14 27.0
2014-06-20 16:30 2.76 15.38 204 6.64 69.6 0.16 25.0
2014-06-20 16:00 2.72 15.38 206 6.94 69.1 0.10 35.0
2014-06-20 15:30 2.43 15.38 203 7.01 68.9 0.17 39.0
2014-06-20 15:00 2.43 15.38 205 6.91 68.9 0.16 16.0
2014-06-20 14:30 2.26 15.38 204 6.71 68.9 0.25 8.0
2014-06-20 14:00 2.30 15.38 205 7.22 68.9 0.16 8.0
2014-06-20 13:30 2.10 15.38 205 6.56 68.9 0.25 21.0
2014-06-20 13:00 2.13 15.38 209 6.98 68.9 0.16 8.0
2014-06-20 12:30 2.10 15.38 203 6.65 68.9 0.16 18.0
2014-06-20 12:00 2.23 15.38 207 6.87 68.9 0.10 27.0
2014-06-20 11:30 2.23 15.38 204 7.09 68.9 0.02 4.0
2014-06-20 11:00 2.17 15.38 214 6.39 68.9 0.06 301.0
2014-06-20 10:30 2.23 15.38 210 6.23 68.9 0.04 329.0
2014-06-20 10:00 2.07 12.50 192 6.14 68.9 0.04 336.0
2014-06-20 09:30 2.10 15.38 203 6.38 68.9 0.08 278.0
2014-06-20 09:00 2.13 15.38 204 6.21 68.9 0.04 263.0
2014-06-20 08:30 2.20 15.38 202 6.42 68.9 0.14 331.0
2014-06-20 08:00 2.23 16.67 205 6.45 68.9 0.12 310.0
2014-06-20 07:30 2.23 15.38 206 6.03 68.9 0.06 301.0
2014-06-20 07:00 2.26 15.38 205 6.53 69.1 0.06 327.0
2014-06-20 06:30 2.59 16.67 208 7.52 69.1 0.02 325.0
2014-06-20 06:00 2.26 15.38 206 6.97 69.1 0.04 240.0
2014-06-20 05:30 2.26 15.38 205 7.09 69.1 0.17 199.0
2014-06-20 05:00 2.36 16.67 202 7.26 69.1 0.14 174.0
2014-06-20 04:30 2.33 16.67 211 7.27 69.3 0.17 176.0
2014-06-20 04:00 2.07 12.50 194 6.54 69.3 0.23 155.0
2014-06-20 03:30 2.23 16.67 204 6.92 69.3 0.23 160.0
2014-06-20 03:00 2.03 16.67 206 6.07 69.4 0.17 136.0
2014-06-20 02:30 2.17 12.50 188 6.61 69.4 0.17 134.0
2014-06-20 02:00 2.23 16.67 203 6.48 69.4 0.23 144.0
2014-06-20 01:30 2.20 16.67 200 6.21 69.6 0.25 132.0
2014-06-20 01:00 2.20 16.67 204 5.91 69.6 0.23 119.0
2014-06-20 00:30 2.23 16.67 208 6.10 69.4 0.29 125.0
2014-06-20 00:00 2.10 13.33 185 5.80 69.6 0.25 129.0
2014-06-19 23:30 2.17 16.67 205 6.17 69.6 0.43 121.0
2014-06-19 23:00 2.33 16.67 201 6.86 69.6 0.33 130.0
2014-06-19 22:30 2.33 16.67 199 6.57 69.8 0.39 110.0
2014-06-19 22:00 2.26 12.50 187 6.28 69.6 0.31 106.0
2014-06-19 21:30 2.26 16.67 201 6.56 69.3 0.45 106.0
2014-06-19 21:00 2.26 16.67 209 6.23 69.3 0.27 126.0
2014-06-19 20:30 2.23 16.67 204 6.40 69.4 0.33 121.0
2014-06-19 20:00 2.20 13.33 185 6.75 69.3 0.19 109.0
2014-06-19 19:30 2.13 13.33 185 6.79 69.3 0.16 109.0
2014-06-19 19:00 2.33 16.67 198 7.52 69.3 0.12 107.0
2014-06-19 18:30 2.20 16.67 201 7.27 69.1 0.17 86.0
2014-06-19 18:00 2.10 16.67 206 7.18 69.1 0.06 47.0
2014-06-19 17:30 2.03 13.33 195 7.20 69.1 0.10 56.0
2014-06-19 17:00 2.10 9.09 254 7.22 69.1 0.08 117.0
2014-06-19 16:30 2.17 16.67 204 7.25 68.7 0.12 59.0
2014-06-19 16:00 2.13 13.33 196 6.92 68.4 0.06 44.0
2014-06-19 15:30 2.10 16.67 210 6.83 68.2 0.12 27.0
2014-06-19 15:00 2.23 13.33 192 7.33 68.2 0.06 39.0
2014-06-19 14:30 2.30 13.33 189 7.62 68.2 0.04 115.0
2014-06-19 14:00 2.17 13.33 194 7.43 68.2 0.06 21.0
2014-06-19 13:30 2.03 16.67 207 7.52 68.2 0.08 26.0
2014-06-19 13:00 2.23 9.52 268 7.67 68.2 0.04 248.0
2014-06-19 12:30 2.13 9.52 255 7.11 68.2 0.06 60.0
2014-06-19 12:00 2.23 13.33 194 7.70 68.4 0.02 143.0
2014-06-19 11:30 2.23 12.50 194 7.35 68.4 0.02 260.0
2014-06-19 11:00 2.23 12.50 195 7.59 68.4 0.04 291.0
2014-06-19 10:30 2.17 13.33 193 7.64 68.4 0.08 109.0
2014-06-19 10:00 2.20 13.33 194 7.71 68.5 0.06 102.0
2014-06-19 09:30 2.33 13.33 196 7.79 68.5 0.08 120.0
2014-06-19 09:00 2.23 18.18 203 7.38 68.7 0.08 104.0
2014-06-19 08:30 2.20 8.70 274 7.20 68.5 0.06 142.0
2014-06-19 08:00 2.17 13.33 189 7.46 68.7 0.04 92.0
2014-06-19 07:30 2.30 13.33 192 7.41 68.7 0.06 89.0
2014-06-19 07:00 2.30 13.33 192 7.42 68.9 0.02 188.0
2014-06-19 06:30 2.20 13.33 193 7.35 68.9 0.06 99.0
2014-06-19 06:00 2.23 13.33 192 7.38 68.9 0.02 212.0
2014-06-19 05:30 2.26 9.52 253 7.31 68.9 0.06 97.0
2014-06-19 05:00 2.26 13.33 198 7.06 68.9 0.08 176.0
2014-06-19 04:30 2.33 13.33 190 6.92 69.1 0.08 163.0
2014-06-19 04:00 2.43 8.33 274 6.88 69.1 0.16 142.0
2014-06-19 03:30 2.36 9.09 282 6.57 69.1 0.19 152.0
2014-06-19 03:00 2.40 8.70 273 6.70 69.3 0.14 141.0
2014-06-19 02:30 2.46 13.33 197 6.56 69.3 0.25 135.0
2014-06-19 02:00 2.49 13.33 200 6.45 69.3 0.27 136.0
2014-06-19 01:30 2.46 9.09 270 6.29 69.4 0.29 152.0
2014-06-19 01:00 2.43 8.70 280 6.04 69.6 0.33 141.0
2014-06-19 00:30 2.49 13.33 195 6.19 69.6 0.29 115.0
2014-06-19 00:00 2.53 13.33 193 6.11 69.6 0.23 128.0
2014-06-18 23:30 2.36 13.33 204 5.96 70.2 0.29 127.0
2014-06-18 23:00 2.62 13.33 198 6.13 69.8 0.33 155.0
2014-06-18 22:30 2.53 9.09 270 6.03 69.8 0.33 145.0
2014-06-18 22:00 2.46 9.09 253 5.95 70.0 0.29 154.0
2014-06-18 21:30 2.53 6.06 280 6.02 70.2 0.23 139.0
2014-06-18 21:00 2.53 13.33 200 6.05 69.8 0.27 150.0
2014-06-18 20:30 2.49 13.33 195 6.11 69.6 0.31 146.0
2014-06-18 20:00 2.49 6.06 282 5.88 69.6 0.27 139.0
2014-06-18 19:30 2.59 6.25 282 5.95 69.4 0.37 109.0
2014-06-18 19:00 2.62 13.33 190 6.28 69.3 0.31 114.0
2014-06-18 18:30 2.76 6.45 290 6.15 69.4 0.43 80.0
2014-06-18 18:00 2.76 6.67 285 6.14 69.3 0.29 105.0
2014-06-18 17:30 2.95 6.45 287 6.20 69.1 0.27 94.0
2014-06-18 17:00 2.82 6.45 286 6.17 68.9 0.23 76.0
2014-06-18 16:30 2.82 6.90 287 6.05 68.7 0.27 68.0
2014-06-18 16:00 2.92 7.14 285 6.01 68.7 0.27 57.0
2014-06-18 15:30 2.92 6.90 288 6.21 68.7 0.21 77.0
2014-06-18 15:00 2.89 7.14 288 6.08 68.5 0.10 73.0
2014-06-18 14:30 2.85 7.69 276 6.36 68.5 0.10 102.0
2014-06-18 14:00 2.76 7.14 280 6.22 68.5 0.06 120.0
2014-06-18 13:30 2.66 6.25 284 6.12 68.5 0.12 119.0
2014-06-18 13:00 2.82 6.67 282 6.19 68.7 0.17 135.0
2014-06-18 12:30 2.95 6.67 282 6.25 68.7 0.16 130.0
2014-06-18 12:00 2.95 7.69 285 6.35 68.7 0.10 124.0
2014-06-18 11:30 2.82 8.00 283 6.08 68.9 0.10 152.0
2014-06-18 11:00 2.99 7.14 284 6.07 68.9 0.14 184.0
2014-06-18 10:30 2.79 7.69 281 5.97 68.9 0.04 148.0
2014-06-18 10:00 2.69 7.41 286 5.99 68.9 0.06 119.0
2014-06-18 09:30 2.72 9.09 256 5.85 68.9 0.19 164.0
2014-06-18 09:00 2.59 8.00 279 5.67 68.9 0.04 88.0
2014-06-18 08:30 2.53 8.00 278 5.86 69.1 0.02 199.0
2014-06-18 08:00 2.53 8.33 281 5.74 69.1 0.02 246.0
2014-06-18 07:30 2.56 8.33 276 5.67 69.1 0.10 177.0
2014-06-18 07:00 2.69 7.41 283 5.64 69.1 0.23 154.0
2014-06-18 06:30 2.56 5.71 277 5.45 68.9 0.27 138.0
2014-06-18 06:00 2.69 7.14 277 5.64 68.9 0.04 106.0
2014-06-18 05:30 2.72 5.71 274 5.43 68.9 0.23 123.0
2014-06-18 05:00 2.82 6.90 278 5.41 68.9 0.31 140.0
2014-06-18 04:30 2.69 14.29 207 5.30 68.9 0.23 152.0
2014-06-18 04:00 2.69 7.14 279 5.23 68.9 0.23 147.0
2014-06-18 03:30 2.69 7.14 280 5.23 68.9 0.35 132.0
2014-06-18 03:00 2.69 7.41 282 5.30 68.9 0.33 137.0
2014-06-18 02:30 2.72 7.14 276 5.35 69.1 0.45 120.0
2014-06-18 02:00 2.82 6.90 270 5.37 69.1 0.37 140.0
2014-06-18 01:30 2.89 7.41 283 5.33 69.1 0.43 143.0
2014-06-18 01:00 2.92 7.69 279 5.46 69.1 0.29 134.0
2014-06-18 00:30 2.89 6.67 283 5.02 69.3 0.27 132.0
2014-06-18 00:00 2.85 8.00 279 5.44 69.4 0.35 126.0
2014-06-17 23:30 2.89 7.14 285 5.42 69.6 0.35 120.0
2014-06-17 23:00 2.82 7.41 285 5.33 69.6 0.29 117.0
2014-06-17 22:30 3.22 6.90 283 5.70 69.6 0.41 116.0
2014-06-17 22:00 3.05 7.14 285 5.69 69.6 0.54 115.0
2014-06-17 21:30 3.15 6.90 293 5.76 69.8 0.35 109.0
2014-06-17 21:00 3.22 6.90 287 5.88 69.6 0.31 107.0
2014-06-17 20:30 3.25 7.69 286 5.91 69.6 0.31 96.0
2014-06-17 20:00 3.22 8.00 293 5.99 69.6 0.51 101.0
2014-06-17 19:30 3.25 7.69 295 6.16 69.4 0.31 107.0
2014-06-17 19:00 3.22 6.90 288 6.02 69.4 0.31 104.0
2014-06-17 18:30 3.22 6.67 290 6.13 69.3 0.39 107.0
2014-06-17 18:00 3.15 7.41 287 6.19 69.1 0.29 87.0
2014-06-17 17:30 3.35 7.41 288 6.28 69.1 0.25 93.0
2014-06-17 17:00 3.28 7.41 287 6.13 68.9 0.21 104.0
2014-06-17 16:30 3.38 7.14 287 6.05 68.7 0.17 97.0
2014-06-17 16:00 3.25 7.14 289 6.00 68.7 0.14 107.0
2014-06-17 15:30 3.41 7.41 290 6.08 68.5 0.14 128.0
2014-06-17 15:00 3.41 6.90 291 5.99 68.5 0.08 106.0
2014-06-17 14:30 3.41 7.14 287 6.11 68.5 0.06 55.0
2014-06-17 14:00 3.54 7.69 290 6.13 68.5 0.06 71.0
2014-06-17 13:30 3.81 7.14 292 6.14 68.5 0.06 154.0
2014-06-17 13:00 3.54 6.90 288 6.09 68.5 0.10 160.0
2014-06-17 12:30 3.41 6.67 286 6.08 68.5 0.16 169.0
2014-06-17 12:00 3.61 7.41 285 6.01 68.5 0.19 181.0
2014-06-17 11:30 3.38 6.90 285 5.87 68.5 0.10 179.0
2014-06-17 11:00 3.38 6.90 282 5.89 68.7 0.19 171.0
2014-06-17 10:30 3.38 6.45 272 5.88 68.7 0.12 172.0
2014-06-17 10:00 3.25 5.56 268 5.76 68.7 0.10 182.0
2014-06-17 09:30 3.28 7.41 284 5.83 68.7 0.16 186.0
2014-06-17 09:00 3.15 5.13 277 5.65 68.5 0.14 179.0
2014-06-17 08:30 3.08 5.71 278 5.60 68.5 0.17 171.0
2014-06-17 08:00 3.18 8.33 278 5.94 68.5 0.17 172.0
2014-06-17 07:30 2.99 6.06 274 5.49 68.7 0.04 124.0
2014-06-17 07:00 2.92 5.88 283 5.56 68.7 0.21 173.0
2014-06-17 06:30 2.92 9.09 286 5.49 68.7 0.25 165.0
2014-06-17 06:00 3.08 8.33 282 5.59 68.9 0.19 170.0
2014-06-17 05:30 3.18 9.09 283 5.64 68.9 0.27 164.0
2014-06-17 05:00 2.95 9.52 278 5.45 68.9 0.25 156.0
2014-06-17 04:30 2.89 8.33 278 5.32 68.9 0.29 173.0
2014-06-17 04:00 2.62 4.88 270 5.17 68.9 0.31 165.0
2014-06-17 03:30 2.62 9.52 263 5.53 68.9 0.29 152.0
2014-06-17 03:00 2.72 7.69 281 5.79 69.1 0.35 141.0
2014-06-17 02:30 2.69 6.45 280 5.90 69.1 0.27 151.0
2014-06-17 02:00 2.76 7.41 277 6.06 69.3 0.29 130.0
2014-06-17 01:30 2.76 7.69 281 6.00 69.3 0.29 157.0
2014-06-17 01:00 2.79 6.90 280 6.03 69.4 0.27 145.0
2014-06-17 00:30 2.89 7.14 282 6.09 69.4 0.29 144.0
2014-06-17 00:00 2.95 7.69 276 6.07 69.6 0.31 154.0
2014-06-16 23:30 3.12 6.67 277 6.15 69.6 0.41 150.0
2014-06-16 23:00 3.15 8.00 277 5.93 69.6 0.33 138.0
2014-06-16 22:30 3.25 7.14 291 5.90 69.6 0.39 139.0
2014-06-16 22:00 3.22 6.90 288 5.83 69.6 0.37 136.0
2014-06-16 21:30 3.44 7.69 289 6.05 69.4 0.35 131.0
2014-06-16 21:00 3.61 7.14 284 6.11 69.3 0.27 146.0
2014-06-16 20:30 3.44 8.00 283 6.14 69.1 0.31 146.0
2014-06-16 20:00 3.51 8.70 280 6.22 69.1 0.31 131.0
2014-06-16 19:30 3.54 7.41 281 6.36 69.1 0.25 130.0
2014-06-16 19:00 3.48 7.14 290 6.31 68.9 0.21 112.0
2014-06-16 18:30 3.18 6.90 288 6.20 68.7 0.19 134.0
2014-06-16 18:00 3.41 6.90 286 6.42 68.5 0.19 127.0
2014-06-16 17:30 3.58 7.41 285 6.35 68.4 0.16 120.0
2014-06-16 17:00 3.48 7.14 288 6.28 68.2 0.19 114.0
2014-06-16 16:30 3.58 7.14 291 6.09 68.2 0.14 112.0
2014-06-16 16:00 3.71 7.14 290 6.41 68.2 0.10 106.0
2014-06-16 15:30 3.64 7.14 288 6.35 68.2 0.08 116.0
2014-06-16 15:00 3.54 8.00 286 6.43 68.2 0.06 184.0
2014-06-16 14:30 3.51 6.45 293 6.30 68.2 0.06 175.0
2014-06-16 14:00 3.41 6.90 296 6.05 68.2 0.06 153.0
2014-06-16 13:30 3.64 6.90 291 6.21 68.4 0.04 161.0
2014-06-16 13:00 3.64 7.14 292 6.30 68.4 0.12 191.0
2014-06-16 12:30 3.71 6.90 286 6.56 68.4 0.14 164.0
2014-06-16 12:00 3.48 6.90 288 6.48 68.4 0.21 176.0
2014-06-16 11:30 3.22 9.09 275 6.47 68.4 0.23 165.0
2014-06-16 11:00 2.95 9.09 277 6.17 68.5 0.25 181.0
2014-06-16 10:30 3.08 9.09 288 6.33 68.4 0.21 193.0
2014-06-16 10:00 2.89 9.09 288 6.35 68.4 0.23 173.0
2014-06-16 09:30 3.15 9.09 284 6.78 68.5 0.29 189.0
2014-06-16 09:00 3.28 9.09 285 7.00 68.5 0.31 189.0
2014-06-16 08:30 3.05 9.09 282 7.03 68.5 0.39 177.0
2014-06-16 08:00 2.82 8.70 288 6.74 68.5 0.47 176.0
2014-06-16 07:30 3.02 9.52 281 6.91 68.9 0.33 176.0
2014-06-16 07:00 2.99 9.52 281 6.96 68.9 0.49 172.0
2014-06-16 06:30 2.99 9.52 284 7.04 69.1 0.41 165.0
2014-06-16 06:00 2.99 9.52 283 7.06 69.1 0.41 166.0
2014-06-16 05:30 2.79 9.52 285 6.83 68.9 0.41 154.0
2014-06-16 05:00 2.72 9.09 281 6.82 69.1 0.33 155.0
2014-06-16 04:30 2.95 9.52 285 7.00 69.1 0.27 152.0
2014-06-16 04:00 3.08 8.70 285 7.24 69.1 0.33 148.0
2014-06-16 03:30 2.89 9.52 279 6.92 69.1 0.23 147.0
2014-06-16 03:00 3.31 9.09 281 7.52 69.1 0.29 152.0
2014-06-16 02:30 3.02 9.52 290 7.02 69.1 0.35 149.0
2014-06-16 02:00 2.99 10.00 286 6.80 69.3 0.23 157.0
2014-06-16 01:30 2.85 9.52 285 6.38 69.6 0.27 151.0
2014-06-16 01:00 2.76 10.00 273 6.40 69.3 0.35 145.0
2014-06-16 00:30 2.92 10.00 282 6.63 69.6 0.37 147.0
2014-06-16 00:00 3.22 10.00 276 6.88 69.6 0.43 143.0
2014-06-15 23:30 3.05 10.00 278 6.71 69.8 0.47 154.0
2014-06-15 23:00 3.25 10.53 271 6.96 69.6 0.35 159.0
2014-06-15 22:30 3.12 9.52 282 6.70 70.0 0.31 168.0
2014-06-15 22:00 3.25 10.00 283 6.88 69.8 0.31 164.0
2014-06-15 21:30 3.25 10.00 274 6.60 69.4 0.27 160.0
2014-06-15 21:00 3.18 9.52 279 6.48 69.4 0.17 143.0
2014-06-15 20:30 3.51 9.52 280 6.84 69.3 0.17 158.0
2014-06-15 20:00 3.51 9.52 285 6.73 69.1 0.17 134.0
2014-06-15 19:30 3.48 8.70 284 6.74 68.9 0.17 134.0
2014-06-15 19:00 3.44 8.70 290 6.97 69.1 0.27 143.0
2014-06-15 18:30 3.51 9.52 288 6.95 68.7 0.06 170.0
2014-06-15 18:00 3.54 9.52 286 6.87 68.7
2014-06-15 17:30 3.38 9.52 284 6.95 68.7 0.12 201.0
2014-06-15 17:00 3.44 10.00 282 6.81 68.5 0.14 183.0
2014-06-15 16:30 3.38 10.00 279 7.14 68.4
2014-06-15 16:00 3.18 10.00 291 6.96 68.2 0.10 185.0
2014-06-15 15:30 3.51 9.52 280 7.33 68.2 0.10 206.0
2014-06-15 15:00 3.41 10.00 284 7.29 68.2 0.23 196.0
2014-06-15 14:30 3.02 10.53 261 7.04 68.2 0.21 201.0
2014-06-15 14:00 3.05 9.52 272 6.88 68.2 0.19 199.0
2014-06-15 13:30 2.92 13.33 210 7.03 68.2 0.23 204.0
2014-06-15 13:00 2.95 10.00 265 7.14 68.2 0.21 201.0
2014-06-15 12:30 3.05 10.53 254 7.02 68.2 0.27 202.0
2014-06-15 12:00 2.95 9.52 267 7.07 68.2 0.31 199.0
2014-06-15 11:30 3.02 10.00 274 7.01 68.2 0.39 203.0
2014-06-15 11:00 3.38 10.00 276 7.19 68.2 0.39 200.0
2014-06-15 10:30 3.12 10.00 277 6.99 68.2 0.43 193.0
2014-06-15 10:00 3.44 9.52 276 7.62 68.2 0.39 192.0
2014-06-15 09:30 3.22 10.00 280 7.33 68.2 0.47 194.0
2014-06-15 09:00 3.18 9.52 280 7.41 68.2 0.52 185.0
2014-06-15 08:30 3.31 10.00 280 7.58 68.2 0.45 192.0
2014-06-15 08:00 2.95 7.69 280 6.97 68.4 0.45 189.0
2014-06-15 07:30 3.12 14.29 207 7.76 68.4 0.41 163.0
2014-06-15 07:00 2.99 10.53 265 7.43 68.2 0.52 177.0
2014-06-15 06:30 3.02 14.29 211 7.45 68.4 0.43 168.0
2014-06-15 06:00 2.92 10.53 263 7.63 68.4 0.33 157.0
2014-06-15 05:30 2.82 10.53 263 7.03 68.5 0.41 158.0
2014-06-15 05:00 2.95 14.29 212 7.56 68.5 0.37 164.0
2014-06-15 04:30 2.95 14.29 211 7.26 68.7 0.37 168.0
2014-06-15 04:00 3.02 14.29 219 7.74 68.7 0.39 159.0
2014-06-15 03:30 2.92 14.29 212 7.56 68.9 0.43 157.0
2014-06-15 03:00 2.92 14.29 218 7.44 68.9 0.37 166.0
2014-06-15 02:30 2.92 14.29 214 7.28 69.1 0.37 169.0
2014-06-15 02:00 2.92 14.29 216 7.33 69.1 0.35 174.0
2014-06-15 01:30 2.92 14.29 211 7.32 69.1 0.33 176.0
2014-06-15 01:00 2.79 14.29 221 6.71 69.3 0.37 170.0
2014-06-15 00:30 2.99 8.33 269 6.74 69.4 0.43 166.0
2014-06-15 00:00 2.95 14.29 215 6.64 69.4 0.43 168.0
2014-06-14 23:30 3.12 14.29 216 6.70 69.3 0.41 168.0
2014-06-14 23:00 3.18 14.29 222 6.78 69.3 0.45 174.0
2014-06-14 22:30 3.28 14.29 214 6.75 69.3 0.45 163.0
2014-06-14 22:00 3.35 14.29 216 6.85 69.3 0.45 156.0
2014-06-14 21:30 3.61 8.00 281 6.82 69.4 0.41 155.0
2014-06-14 21:00 3.25 7.69 285 6.80 69.6 0.41 156.0
2014-06-14 20:30 3.08 8.00 282 6.59 69.6 0.33 159.0
2014-06-14 20:00 3.15 14.29 209 6.81 69.4 0.43 154.0
2014-06-14 19:30 3.18 7.41 287 6.73 69.4 0.37 165.0
2014-06-14 19:00 3.44 14.29 212 6.77 69.4 0.35 171.0
2014-06-14 18:30 3.25 8.00 279 6.71 69.3 0.33 168.0
2014-06-14 18:00 3.48 15.38 210 6.80 68.9 0.33 178.0
2014-06-14 17:30 3.51 14.29 212 6.88 68.7 0.35 161.0
2014-06-14 17:00 3.51 7.41 282 6.78 68.7
2014-06-14 16:30 3.38 15.38 212 7.07 68.4
2014-06-14 16:00 3.44 15.38 213 6.91 68.2
2014-06-14 15:30 3.25 15.38 206 6.98 68.0 0.41 199.0
2014-06-14 15:00 3.28 14.29 216 6.85 67.8 0.23 210.0
2014-06-14 14:30 3.12 11.76 222 6.78 67.8 0.39 168.0
2014-06-14 14:00 3.05 14.29 207 6.87 67.6 0.49 176.0
2014-06-14 13:30 2.85 14.29 209 6.72 67.6 0.33 185.0
2014-06-14 13:00 2.95 15.38 214 7.03 67.8 0.45 182.0
2014-06-14 12:30 2.82 15.38 211 7.02 67.8 0.39 187.0
2014-06-14 12:00 2.92 15.38 201 7.11 67.8 0.54 180.0
2014-06-14 11:30 2.92 15.38 208 6.95 68.0 0.56 200.0
2014-06-14 11:00 3.02 15.38 210 7.55 68.0 0.62 193.0
2014-06-14 10:30 3.12 15.38 212 7.27 68.0 0.62 189.0
2014-06-14 10:00 3.25 15.38 206 7.52 67.8 0.56 185.0
2014-06-14 09:30 3.05 15.38 202 7.29 68.0 0.52 186.0
2014-06-14 09:00 2.89 15.38 217 7.05 68.0 0.56 195.0
2014-06-14 08:30 2.95 15.38 206 7.16 68.0 0.66 195.0
2014-06-14 08:00 2.82 13.33 218 6.98 68.0 0.70 184.0
2014-06-14 07:30 2.76 15.38 205 7.61 68.0 0.54 193.0
2014-06-14 07:00 2.79 11.76 200 7.62 68.2 0.54 179.0
2014-06-14 06:30 2.95 15.38 210 8.03 68.2 0.51 193.0
2014-06-14 06:00 2.79 15.38 211 7.64 68.2 0.52 181.0
2014-06-14 05:30 2.82 15.38 201 7.56 68.2 0.64 179.0
2014-06-14 05:00 2.89 15.38 214 7.46 68.4 0.51 185.0
2014-06-14 04:30 2.95 15.38 199 8.20 68.4 0.49 181.0
2014-06-14 04:00 2.85 15.38 204 7.48 68.5 0.52 183.0
2014-06-14 03:30 2.95 15.38 201 7.89 68.5 0.52 184.0
2014-06-14 03:00 3.28 15.38 210 8.50 68.7 0.68 179.0
2014-06-14 02:30 3.05 15.38 206 8.23 68.9 0.62 177.0
2014-06-14 02:00 2.95 15.38 202 7.81 68.9 0.56 175.0
2014-06-14 01:30 2.95 15.38 204 8.03 69.1 0.62 174.0
2014-06-14 01:00 2.69 13.33 205 7.21 69.1 0.58 167.0
2014-06-14 00:30 2.89 15.38 205 7.69 69.3 0.56 162.0
2014-06-14 00:00 2.79 15.38 200 7.12 69.4 0.89 155.0
2014-06-13 23:30 2.69 15.38 202 6.34 69.3 0.58 161.0
2014-06-13 23:00 2.82 15.38 200 6.44 69.3 0.60 164.0
2014-06-13 22:30 2.79 13.33 210 6.17 69.3 0.66 162.0
2014-06-13 22:00 3.02 15.38 208 7.20 69.1 0.76 157.0
2014-06-13 21:30 2.92 15.38 207 6.83 69.3 0.64 155.0
2014-06-13 21:00 2.99 15.38 204 7.14 69.3 0.54 161.0
2014-06-13 20:30 2.95 15.38 213 7.34 69.1 0.54 156.0
2014-06-13 20:00 2.85 15.38 202 7.03 68.9 0.51 162.0
2014-06-13 19:30 2.89 15.38 209 7.45 68.9 0.56 166.0
2014-06-13 19:00 2.82 15.38 207 7.20 68.5 0.43 180.0
2014-06-13 18:30 2.92 13.33 204 7.70 68.5 0.43 177.0
2014-06-13 18:00 3.12 16.67 211 8.40 68.2 0.27 175.0
2014-06-13 17:30 2.95 16.67 212 8.42 68.2 0.17 175.0
2014-06-13 17:00 2.95 15.38 211 8.40 67.8 0.37 180.0
2014-06-13 16:30 2.76 13.33 202 8.11 67.8 0.35 154.0
2014-06-13 16:00 2.99 16.67 206 8.46 67.8 0.23 160.0
2014-06-13 15:30 2.72 13.33 202 7.54 67.8 0.16 176.0
2014-06-13 15:00 2.89 16.67 205 7.77 67.8 0.23 171.0
2014-06-13 14:30 2.89 16.67 207 7.77 67.8 0.23 197.0
2014-06-13 14:00 2.79 13.33 207 7.60 67.8 0.14 191.0
2014-06-13 13:30 2.92 16.67 201 7.57 67.8 0.17 214.0
2014-06-13 13:00 2.79 13.33 203 7.35 67.8 0.17 189.0
2014-06-13 12:30 2.79 16.67 208 7.26 67.8 0.23 198.0
2014-06-13 12:00 2.99 14.29 209 7.60 67.8 0.23 199.0
2014-06-13 11:30 3.02 16.67 213 7.77 68.0 0.23 186.0
2014-06-13 11:00 3.12 13.33 206 7.58 68.0 0.31 207.0
2014-06-13 10:30 2.99 14.29 210 7.29 68.2 0.31 199.0
2014-06-13 10:00 2.85 16.67 214 6.50 68.2 0.29 206.0
2014-06-13 09:30 3.15 13.33 204 7.03 68.2 0.35 207.0
2014-06-13 09:00 3.02 16.67 208 6.72 68.2 0.45 201.0
2014-06-13 08:30 3.12 13.33 200 6.72 68.2 0.45 199.0
2014-06-13 08:00 3.02 14.29 212 6.85 68.2 0.33 198.0
2014-06-13 07:30 2.99 14.29 214 6.34 68.2 0.35 209.0
2014-06-13 07:00 3.12 14.29 208 6.25 68.4 0.43 192.0
2014-06-13 06:30 3.25 14.29 211 6.11 68.4 0.37 204.0
2014-06-13 06:00 3.25 14.29 204 6.24 68.5 0.39 202.0
2014-06-13 05:30 3.31 13.33 205 6.25 68.5 0.37 181.0
2014-06-13 05:00 3.38 14.29 208 6.01 68.5 0.33 184.0
2014-06-13 04:30 3.28 13.33 193 6.08 68.5 0.37 188.0
2014-06-13 04:00 3.05 14.29 200 6.16 68.5 0.33 191.0
2014-06-13 03:30 3.02 14.29 200 6.23 68.5 0.41 187.0
2014-06-13 03:00 3.02 13.33 206 6.18 68.5 0.41 173.0
2014-06-13 02:30 3.12 13.33 210 6.39 68.5 0.35 172.0
2014-06-13 02:00 2.85 14.29 220 5.70 68.7 0.41 166.0
2014-06-13 01:30 3.05 14.29 211 6.46 68.5 0.47 173.0
2014-06-13 01:00 2.72 14.29 203 5.68 68.5 0.41 163.0
2014-06-13 00:30 2.95 13.33 209 6.09 68.5 0.49 163.0
2014-06-13 00:00 2.66 14.29 214 5.66 68.5 0.54 156.0
2014-06-12 23:30 2.92 14.29 198 6.44 68.5 0.51 161.0
2014-06-12 23:00 2.82 14.29 215 6.29 68.7 0.56 152.0
2014-06-12 22:30 2.79 14.29 208 6.42 68.7 0.45 164.0
2014-06-12 22:00 2.62 14.29 213 6.42 68.9 0.52 158.0
2014-06-12 21:30 2.99 14.29 203 7.08 68.9 0.58 159.0
2014-06-12 21:00 2.82 14.29 203 6.69 68.9 0.64 154.0
2014-06-12 20:30 2.85 14.29 207 7.08 68.9 0.41 167.0
2014-06-12 20:00 2.76 14.29 203 6.74 68.9 0.49 159.0
2014-06-12 19:30 3.02 14.29 202 7.64 68.9 0.56 147.0
2014-06-12 19:00 2.79 13.33 208 7.42 68.7 0.41 152.0
2014-06-12 18:30 2.72 12.50 201 7.42 68.7 0.39 158.0
2014-06-12 18:00 2.92 14.29 202 8.09 68.5 0.35 153.0
2014-06-12 17:30 2.89 14.29 213 8.44 68.5 0.31 170.0
2014-06-12 17:00 2.62 14.29 200 8.38 68.4 0.31 170.0
2014-06-12 16:30 2.79 13.33 199 8.61 68.4 0.27 174.0
2014-06-12 16:00 2.72 14.29 208 8.79 68.2 0.23 175.0
2014-06-12 15:30 2.89 15.38 210 9.16 68.2 0.14 174.0
2014-06-12 15:00 2.89 14.29 203 8.89 68.0 0.21 182.0
2014-06-12 14:30 2.62 14.29 214 8.29 68.0 0.16 209.0
2014-06-12 14:00 2.82 15.38 208 8.78 68.0 0.12 213.0
2014-06-12 13:30 2.82 14.29 204 8.39 68.0 0.14 220.0
2014-06-12 13:00 2.76 14.29 208 8.21 68.0 0.17 189.0
2014-06-12 12:30 2.79 15.38 202 7.91 68.0 0.19 228.0
2014-06-12 12:00 3.05 15.38 205 8.20 68.0 0.23 198.0
2014-06-12 11:30 2.99 15.38 202 8.07 68.2 0.35 203.0
2014-06-12 11:00 2.79 14.29 202 7.35 68.2 0.29 211.0
2014-06-12 10:30 2.89 14.29 206 7.49 68.2 0.31 207.0
2014-06-12 10:00 2.72 14.29 205 7.44 68.2 0.29 195.0
2014-06-12 09:30 2.82 14.29 201 7.43 68.2 0.45 188.0
2014-06-12 09:00 2.92 14.29 203 7.53 68.2 0.49 214.0
2014-06-12 08:30 2.89 14.29 209 7.06 68.2 0.43 207.0
2014-06-12 08:00 2.92 14.29 203 7.06 68.2 0.41 207.0
2014-06-12 07:30 3.12 15.38 203 7.16 68.2 0.49 205.0
2014-06-12 07:00 3.05 13.33 196 6.87 68.2 0.41 200.0
2014-06-12 06:30 2.85 14.29 201 6.85 68.2 0.45 190.0
2014-06-12 06:00 2.89 14.29 206 6.83 68.2 0.41 197.0
2014-06-12 05:30 3.05 15.38 211 7.89 68.2 0.35 190.0
2014-06-12 05:00 2.89 15.38 203 7.69 68.2 0.45 179.0
2014-06-12 04:30 2.99 15.38 200 7.71 68.2 0.47 180.0
2014-06-12 04:00 2.82 15.38 199 7.18 68.4 0.39 175.0
2014-06-12 03:30 2.92 14.29 199 7.41 68.4 0.25 188.0
2014-06-12 03:00 2.85 15.38 207 7.29 68.4 0.33 164.0
2014-06-12 02:30 2.85 15.38 198 7.07 68.5 0.33 176.0
2014-06-12 02:00 2.95 15.38 203 7.30 68.5 0.31 174.0
2014-06-12 01:30 3.22 15.38 203 8.08 68.7 0.35 171.0
2014-06-12 01:00 2.99 15.38 207 8.01 68.5 0.35 172.0
2014-06-12 00:30 3.08 15.38 200 7.77 68.7 0.33 166.0
2014-06-12 00:00 3.28 15.38 205 7.87 68.7 0.31 172.0
2014-06-11 23:30 3.02 15.38 197 7.54 68.9 0.41 167.0
2014-06-11 23:00 2.95 15.38 212 7.61 68.7 0.37 166.0
2014-06-11 22:30 2.99 15.38 206 7.35 68.7 0.43 163.0
2014-06-11 22:00 2.79 15.38 195 6.91 68.7 0.37 166.0
2014-06-11 21:30 2.99 15.38 207 7.72 68.7 0.54 163.0
2014-06-11 21:00 3.02 15.38 207 8.02 68.7 0.66 161.0
2014-06-11 20:30 3.02 15.38 201 8.62 68.5 0.58 163.0
2014-06-11 20:00 3.08 15.38 200 9.00 68.5 0.51 165.0
2014-06-11 19:30 2.79 15.38 198 8.90 68.5 0.31 168.0
2014-06-11 19:00 2.89 15.38 203 9.54 68.5 0.43 162.0
2014-06-11 18:30 2.99 15.38 204 10.27 68.5 0.45 152.0
2014-06-11 18:00 2.69 15.38 200 9.87 68.2 0.43 165.0
2014-06-11 17:30 2.79 14.29 200 10.16 68.2 0.41 172.0
2014-06-11 17:00 2.92 15.38 204 9.95 68.0 0.35 166.0
2014-06-11 16:30 3.15 15.38 207 10.53 67.8 0.33 172.0
2014-06-11 16:00 2.69 15.38 202 9.28 67.6 0.29 181.0
2014-06-11 15:30 2.85 15.38 199 9.86 67.5 0.17 183.0
2014-06-11 15:00 3.22 15.38 203 10.69 67.5 0.16 177.0
2014-06-11 14:30 3.38 15.38 196 10.67 67.5 0.17 204.0
2014-06-11 14:00 2.95 11.76 265 9.89 67.5 0.17 202.0
2014-06-11 13:30 3.08 15.38 195 10.52 67.5 0.27 208.0
2014-06-11 13:00 3.08 16.67 205 10.61 67.5 0.19 217.0
2014-06-11 12:30 2.92 15.38 209 10.15 67.5 0.27 215.0
2014-06-11 12:00 3.41 15.38 201 11.40 67.5 0.37 201.0
2014-06-11 11:30 3.31 15.38 199 10.97 67.5 0.33 208.0
2014-06-11 11:00 2.76 15.38 195 10.07 67.6 0.29 204.0
2014-06-11 10:30 2.69 15.38 198 9.97 67.6 0.33 211.0
2014-06-11 10:00 2.72 16.67 199 9.95 67.6 0.41 205.0
2014-06-11 09:30 2.95 16.67 208 10.37 67.6 0.39 208.0
2014-06-11 09:00 2.89 15.38 199 9.96 67.6 0.41 211.0
2014-06-11 08:30 2.72 15.38 201 9.61 67.6 0.43 200.0
2014-06-11 08:00 2.82 15.38 205 9.80 67.8 0.49 196.0
2014-06-11 07:30 3.05 16.67 201 10.57 67.8 0.39 195.0
2014-06-11 07:00 2.76 16.67 202 10.01 67.8 0.43 192.0
2014-06-11 06:30 3.12 15.38 202 10.24 67.8 0.52 188.0
2014-06-11 06:00 2.76 16.67 205 9.59 67.8 0.39 193.0
2014-06-11 05:30 2.69 16.67 202 8.83 67.8 0.58 182.0
2014-06-11 05:00 3.18 16.67 200 10.37 67.8 0.51 185.0
2014-06-11 04:30 3.02 16.67 203 9.91 67.8 0.37 193.0
2014-06-11 04:00 2.69 16.67 201 9.06 68.0 0.37 203.0
2014-06-11 03:30 2.82 16.67 196 9.23 68.0 0.31 198.0
2014-06-11 03:00 2.72 16.67 197 8.72 68.0 0.37 187.0
2014-06-11 02:30 2.79 16.67 194 8.53 68.0 0.54 175.0
2014-06-11 02:00 2.76 16.67 196 8.38 68.0 0.39 181.0
2014-06-11 01:30 3.12 16.67 200 9.20 68.0 0.54 174.0
2014-06-11 01:00 3.08 16.67 202 8.65 68.2 0.68 165.0
2014-06-11 00:30 2.85 16.67 197 8.12 68.2 0.66 157.0
2014-06-11 00:00 3.05 16.67 197 8.84 68.2 0.58 153.0
2014-06-10 23:30 2.76 16.67 197 8.00 68.0 0.52 138.0
2014-06-10 23:00 2.72 16.67 200 7.70 68.0 0.39 164.0
2014-06-10 22:30 2.82 16.67 199 8.07 68.0 0.64 143.0
2014-06-10 22:00 3.18 16.67 201 8.84 68.0 0.47 137.0
2014-06-10 21:30 2.89 16.67 201 7.72 68.0 0.37 148.0
2014-06-10 21:00 3.25 16.67 195 8.99 68.0 0.35 137.0
2014-06-10 20:30 3.25 16.67 197 9.11 68.0 0.27 166.0
2014-06-10 20:00 2.89 16.67 199 8.99 67.8 0.21 160.0
2014-06-10 19:30 2.62 16.67 204 8.45 67.6 0.27 149.0
2014-06-10 19:00 2.72 16.67 198 8.67 67.5 0.19 147.0
2014-06-10 18:30 2.76 16.67 195 8.62 67.3 0.16 148.0
2014-06-10 18:00 2.66 16.67 203 8.28 67.3 0.17 159.0
2014-06-10 17:30 2.72 16.67 197 8.99 67.1 0.21 161.0
2014-06-10 17:00 2.62 16.67 205 8.64 67.3 0.12 178.0
2014-06-10 16:30 2.56 16.67 205 8.47 67.1 0.31 180.0
2014-06-10 16:00 2.46 16.67 197 8.76 67.1 0.25 183.0
2014-06-10 15:30 2.69 16.67 206 9.04 67.1 0.19 181.0
2014-06-10 15:00 2.82 16.67 202 10.00 67.1 0.27 181.0
2014-06-10 14:30 2.89 16.67 202 10.15 67.1 0.27 176.0
2014-06-10 14:00 2.99 18.18 207 9.79 67.1 0.27 193.0
2014-06-10 13:30 3.12 18.18 204 10.45 67.3 0.27 194.0
2014-06-10 13:00 2.69 10.53 290 9.14 67.3 0.29 192.0
2014-06-10 12:30 2.72 18.18 200 9.19 67.5 0.27 198.0
2014-06-10 12:00 2.66 11.11 274 9.46 67.5 0.41 185.0
2014-06-10 11:30 2.79 18.18 201 9.51 67.5 0.31 188.0
2014-06-10 11:00 2.92 18.18 202 9.52 67.5 0.47 182.0
2014-06-10 10:30 2.99 18.18 204 9.58 67.5 0.51 185.0
2014-06-10 10:00 2.59 18.18 203 8.75 67.5 0.60 184.0
2014-06-10 09:30 3.02 12.50 205 9.52 67.6 0.54 181.0
2014-06-10 09:00 2.79 18.18 204 9.26 67.8 0.60 180.0
2014-06-10 08:30 2.56 18.18 202 8.81 67.8 0.51 183.0
2014-06-10 08:00 2.62 18.18 196 9.12 67.8 0.56 185.0
2014-06-10 07:30 2.72 18.18 210 9.22 67.8 0.60 180.0
2014-06-10 07:00 2.76 18.18 204 9.45 68.0 0.62 181.0
2014-06-10 06:30 2.53 12.50 200 8.55 68.0 0.54 180.0
2014-06-10 06:00 2.23 13.33 199 8.09 68.0 0.56 179.0
2014-06-10 05:30 2.53 18.18 199 9.11 67.8 0.51 189.0
2014-06-10 05:00 2.59 18.18 208 8.72 67.8 0.51 183.0
2014-06-10 04:30 2.62 18.18 198 8.91 67.8 0.49 176.0
2014-06-10 04:00 2.49 18.18 198 8.05 67.8 0.51 177.0
2014-06-10 03:30 2.62 13.33 200 8.60 67.8 0.45 185.0
2014-06-10 03:00 2.43 18.18 197 8.00 67.8 0.54 189.0
2014-06-10 02:30 2.46 13.33 193 7.67 67.8 0.60 177.0
2014-06-10 02:00 2.43 18.18 203 7.65 68.0 0.64 166.0
2014-06-10 01:30 2.69 18.18 202 8.08 68.0 0.56 163.0
2014-06-10 01:00 2.46 18.18 192 7.07 68.2 0.54 163.0
2014-06-10 00:30 2.76 18.18 202 7.53 68.2 0.66 153.0
2014-06-10 00:00 2.69 18.18 194 7.21 68.2 0.72 153.0
2014-06-09 23:30 2.59 13.33 202 6.90 68.2 0.49 159.0
2014-06-09 23:00 2.79 13.33 199 7.50 68.0 0.66 145.0
2014-06-09 22:30 2.56 13.33 198 6.72 68.2 0.62 148.0
2014-06-09 22:00 2.56 18.18 198 6.89 68.2 0.43 163.0
2014-06-09 21:30 2.66 13.33 194 7.18 68.2 0.54 145.0
2014-06-09 21:00 2.72 12.50 197 7.18 68.0 0.64 146.0
2014-06-09 20:30 2.66 13.33 199 7.20 67.8 0.43 151.0
2014-06-09 20:00 2.59 13.33 196 6.95 67.8 0.29 153.0
2014-06-09 19:30 2.56 13.33 197 7.08 67.6 0.35 162.0
2014-06-09 19:00 2.69 12.50 205 7.55 67.6 0.25 151.0
2014-06-09 18:30 2.62 13.33 206 6.98 67.5 0.27 167.0
2014-06-09 18:00 2.66 13.33 198 7.17 67.5 0.21 183.0
2014-06-09 17:30 2.62 13.33 205 7.49 67.5 0.29 177.0
2014-06-09 17:00 2.66 13.33 205 7.52 67.5 0.23 180.0
2014-06-09 16:30 2.82 13.33 201 7.76 67.5 0.25 177.0
2014-06-09 16:00 2.59 13.33 197 7.22 67.3 0.31 196.0
2014-06-09 15:30 2.62 12.50 197 6.99 67.3 0.23 194.0
2014-06-09 15:00 2.66 13.33 195 6.76 67.3 0.17 200.0
2014-06-09 14:30 2.79 13.33 196 7.10 67.5 0.31 218.0
2014-06-09 14:00 2.79 13.33 203 6.85 67.5 0.27 214.0
2014-06-09 13:30 2.49 13.33 196 6.61 67.5 0.33 215.0
2014-06-09 13:00 2.72 13.33 202 7.21 67.5 0.29 210.0
2014-06-09 12:30 2.62 13.33 203 6.62 67.6 0.45 194.0
2014-06-09 12:00 2.56 13.33 205 6.80 67.6 0.51 199.0
2014-06-09 11:30 2.62 13.33 199 6.87 67.8 0.56 193.0
2014-06-09 11:00 2.79 13.33 204 7.18 67.8 0.39 195.0
2014-06-09 10:30 2.53 13.33 197 6.79 67.6 0.45 191.0
2014-06-09 10:00 2.53 12.50 197 6.86 67.6 0.60 191.0
2014-06-09 09:30 2.53 13.33 200 7.18 67.6 0.58 191.0
2014-06-09 09:00 2.40 13.33 197 6.99 67.6 0.47 189.0
2014-06-09 08:30 2.43 13.33 197 6.76 67.6 0.49 195.0
2014-06-09 08:00 2.40 13.33 206 6.95 67.6 0.60 191.0
2014-06-09 07:30 2.40 13.33 200 7.22 67.6 0.74 186.0
2014-06-09 07:00 2.40 13.33 203 7.04 67.6 0.70 181.0
2014-06-09 06:30 2.53 13.33 201 7.50 67.6 0.86 184.0
2014-06-09 06:00 2.56 14.29 207 7.26 67.6 0.76 177.0
2014-06-09 05:30 2.49 13.33 208 7.31 67.6 0.68 180.0
2014-06-09 05:00 2.49 13.33 196 7.06 67.6 0.51 182.0
2014-06-09 04:30 2.62 13.33 205 7.58 67.8 0.70 177.0
2014-06-09 04:00 2.59 13.33 193 7.34 67.8 0.60 172.0
2014-06-09 03:30 2.59 13.33 200 7.25 68.0 0.62 166.0
2014-06-09 03:00 2.59 12.50 205 7.23 68.2 0.54 186.0
2014-06-09 02:30 2.69 13.33 198 7.32 68.2 0.72 170.0
2014-06-09 02:00 2.59 12.50 205 6.78 68.4 0.68 161.0
2014-06-09 01:30 2.59 13.33 192 6.85 68.5 0.66 158.0
2014-06-09 01:00 2.62 13.33 204 7.05 68.7 0.78 157.0
2014-06-09 00:30 2.72 12.50 206 6.72 68.9 0.60 161.0
2014-06-09 00:00 2.59 14.29 200 6.92 68.9 0.84 152.0
2014-06-08 23:30 2.69 12.50 206 6.67 68.9 0.76 154.0
2014-06-08 23:00 2.53 13.33 202 6.21 68.7 0.80 141.0
2014-06-08 22:30 2.79 14.29 205 6.36 68.7 0.70 140.0
2014-06-08 22:00 2.95 13.33 203 6.53 68.7 0.68 142.0
2014-06-08 21:30 2.85 14.29 204 6.10 68.5 0.56 141.0
2014-06-08 21:00 2.95 6.45 287 6.04 68.2 0.37 129.0
2014-06-08 20:30 3.15 14.29 199 6.22 68.2 0.43 126.0
2014-06-08 20:00 3.05 13.33 206 6.23 68.2 0.25 136.0
2014-06-08 19:30 3.25 12.50 202 6.40 68.2 0.31 151.0
2014-06-08 19:00 3.25 13.33 208 6.55 68.0 0.21 152.0
2014-06-08 18:30 3.28 13.33 203 6.40 67.8 0.23 173.0
2014-06-08 18:00 3.22 13.33 208 6.40 67.8 0.27 159.0
2014-06-08 17:30 3.02 14.29 198 6.32 67.6 0.21 167.0
2014-06-08 17:00 3.28 14.29 200 6.59 67.5 0.31 171.0
2014-06-08 16:30 3.15 12.50 206 6.51 67.3 0.31 192.0
2014-06-08 16:00 3.22 6.67 277 6.49 67.3 0.37 193.0
2014-06-08 15:30 3.25 13.33 197 6.64 67.1 0.35 206.0
2014-06-08 15:00 3.15 14.29 212 6.32 67.1 0.41 205.0
2014-06-08 14:30 3.05 13.33 205 6.56 67.1 0.39 204.0
2014-06-08 14:00 3.18 14.29 200 6.76 67.1 0.43 206.0
2014-06-08 13:30 3.18 13.33 194 6.41 67.1 0.54 206.0
2014-06-08 13:00 3.22 13.33 201 6.56 67.1 0.33 189.0
2014-06-08 12:30 3.05 14.29 203 6.65 67.1 0.43 186.0
2014-06-08 12:00 3.05 13.33 203 6.60 67.3 0.47 189.0
2014-06-08 11:30 2.99 13.33 201 6.42 67.3 0.56 186.0
2014-06-08 11:00 3.05 14.29 202 6.42 67.3 0.51 184.0
2014-06-08 10:30 3.05 14.29 197 6.66 67.5 0.58 186.0
2014-06-08 10:00 2.72 14.29 199 6.57 67.3 0.47 191.0
2014-06-08 09:30 2.82 13.33 208 6.33 67.5 0.51 192.0
2014-06-08 09:00 2.69 13.33 213 6.58 67.3 0.62 192.0
2014-06-08 08:30 2.79 14.29 195 6.60 67.3 0.54 190.0
2014-06-08 08:00 2.95 14.29 203 6.88 67.3 0.56 187.0
2014-06-08 07:30 2.82 14.29 202 7.00 67.3 0.74 181.0
2014-06-08 07:00 2.66 14.29 199 6.88 67.3 0.56 181.0
2014-06-08 06:30 2.46 14.29 201 6.49 67.3 0.51 182.0
2014-06-08 06:00 2.59 14.29 202 7.13 67.3 0.62 177.0
2014-06-08 05:30 2.76 14.29 198 7.29 67.3 0.60 176.0
2014-06-08 05:00 2.46 14.29 205 7.18 67.5 0.62 185.0
2014-06-08 04:30 2.49 14.29 204 6.89 67.5 0.58 168.0
2014-06-08 04:00 2.49 14.29 197 7.06 67.6 0.72 166.0
2014-06-08 03:30 2.49 13.33 199 6.80 67.8 0.62 169.0
2014-06-08 03:00 2.56 14.29 200 7.26 67.6 0.54 168.0
2014-06-08 02:30 2.40 13.33 208 6.70 67.6 0.52 160.0
2014-06-08 02:00 2.53 13.33 198 6.54 67.8 0.60 158.0
2014-06-08 01:30 2.62 14.29 201 6.27 67.8 0.64 153.0
2014-06-08 01:00 2.53 14.29 198 5.74 67.8 0.43 158.0
2014-06-08 00:30 2.79 14.29 203 6.28 67.8 0.74 154.0
2014-06-08 00:00 2.66 14.29 204 5.88 68.0 0.58 148.0
2014-06-07 23:30 2.89 14.29 204 5.79 68.0 0.54 145.0
2014-06-07 23:00 2.69 14.29 202 5.59 68.0 0.64 146.0
2014-06-07 22:30 2.56 15.38 194 5.38 68.0 0.39 148.0
2014-06-07 22:00 2.85 14.29 199 6.03 67.8 0.45 141.0
2014-06-07 21:30 2.72 14.29 207 5.67 67.8 0.45 134.0
2014-06-07 21:00 2.79 14.29 193 5.55 67.8 0.35 158.0
2014-06-07 20:30 2.69 14.29 200 5.41 67.6 0.37 152.0
2014-06-07 20:00 2.85 14.29 205 5.47 67.5 0.35 162.0
2014-06-07 19:30 3.02 14.29 209 5.68 67.5 0.27 167.0
2014-06-07 19:00 2.89 14.29 213 5.56 67.5 0.35 172.0
2014-06-07 18:30 2.82 14.29 203 5.62 67.1 0.23 186.0
2014-06-07 18:00 3.08 14.29 216 6.07 67.1 0.33 178.0
2014-06-07 17:30 3.02 14.29 208 6.00 66.9 0.25 199.0
2014-06-07 17:00 3.18 14.29 196 6.32 66.9 0.39 185.0
2014-06-07 16:30 2.95 15.38 199 6.26 66.9 0.37 178.0
2014-06-07 16:00 3.08 14.29 211 6.09 66.9 0.41 181.0
2014-06-07 15:30 3.12 14.29 198 6.05 66.9 0.49 185.0
2014-06-07 15:00 3.12 14.29 201 6.32 66.9 0.45 199.0
2014-06-07 14:30 3.15 14.29 204 6.19 66.9 0.56 197.0
2014-06-07 14:00 3.28 14.29 202 6.14 67.1 0.68 193.0
2014-06-07 13:30 3.22 14.29 206 6.41 67.1 0.60 189.0
2014-06-07 13:00 3.38 14.29 203 6.68 67.1 0.54 194.0
2014-06-07 12:30 3.12 14.29 197 5.95 67.1 0.49 192.0
2014-06-07 12:00 3.18 14.29 206 5.97 67.1 0.51 199.0
2014-06-07 11:30 3.08 14.29 206 6.12 67.1 0.54 193.0
2014-06-07 11:00 3.12 14.29 208 6.15 67.3 0.47 197.0
2014-06-07 10:30 3.12 14.29 203 6.16 67.3 0.54 188.0
2014-06-07 10:00 3.12 14.29 203 6.06 67.3 0.49 194.0
2014-06-07 09:30 3.08 13.33 214 6.00 67.3 0.43 187.0
2014-06-07 09:00 2.99 15.38 201 5.88 67.5 0.51 187.0
2014-06-07 08:30 3.05 14.29 212 5.82 67.5 0.60 183.0
2014-06-07 08:00 3.12 15.38 197 6.03 67.5 0.54 187.0
2014-06-07 07:30 3.28 14.29 210 6.08 67.5 0.52 173.0
2014-06-07 07:00 3.18 14.29 207 5.82 67.5 0.56 190.0
2014-06-07 06:30 3.31 13.33 212 5.92 67.5 0.56 179.0
2014-06-07 06:00 3.38 14.29 209 5.82 67.6 0.52 186.0
2014-06-07 05:30 3.38 15.38 201 5.75 67.6 0.51 183.0
2014-06-07 05:00 3.18 14.29 208 5.61 67.6 0.66 184.0
2014-06-07 04:30 3.41 14.29 208 5.65 67.5 0.62 177.0
2014-06-07 04:00 3.38 14.29 216 5.86 67.6 0.54 168.0
2014-06-07 03:30 3.35 14.29 201 6.23 67.8 0.49 168.0
2014-06-07 03:00 3.05 14.29 211 6.32 67.8 0.52 164.0
2014-06-07 02:30 3.08 15.38 198 6.24 67.8 0.47 161.0
2014-06-07 02:00 3.12 14.29 212 6.50 67.8 0.60 153.0
2014-06-07 01:30 3.15 14.29 212 6.21 68.2 0.49 152.0
2014-06-07 01:00 3.28 14.29 211 6.57 68.2 0.58 148.0
2014-06-07 00:30 3.18 14.29 208 6.41 68.2 0.60 148.0
2014-06-07 00:00 3.22 13.33 205 6.54 68.4 0.52 144.0
2014-06-06 23:30 3.15 14.29 203 6.63 68.2 0.60 154.0
2014-06-06 23:00 3.38 15.38 205 6.55 68.2 0.51 147.0
2014-06-06 22:30 3.38 14.29 207 6.31 68.2 0.47 162.0
2014-06-06 22:00 3.28 6.45 283 5.84 68.2 0.41 163.0
2014-06-06 21:30 3.41 14.29 206 5.95 68.0 0.47 148.0
2014-06-06 21:00 3.61 15.38 199 6.18 68.0 0.45 149.0
2014-06-06 20:30 3.48 14.29 210 5.80 67.8 0.49 131.0
2014-06-06 20:00 3.54 14.29 208 5.88 67.8 0.31 149.0
2014-06-06 19:30 3.67 7.14 279 5.71 67.6 0.25 149.0
2014-06-06 19:00 3.54 14.29 200 5.77 67.5 0.29 156.0
2014-06-06 18:30 3.97 15.38 198 6.00 67.3 0.27 176.0
2014-06-06 18:00 3.77 15.38 207 5.71 67.3 0.25 183.0
2014-06-06 17:30 3.81 14.29 198 5.88 67.3 0.27 182.0
2014-06-06 17:00 3.64 6.45 292 5.68 67.3 0.23 192.0
2014-06-06 16:30 4.00 6.06 291 5.94 67.3 0.19 195.0
2014-06-06 16:00 3.87 15.38 204 6.25 67.3 0.23 191.0
2014-06-06 15:30 3.71 14.29 209 6.15 67.3 0.29 186.0
2014-06-06 15:00 3.67 15.38 209 6.35 67.5 0.23 190.0
2014-06-06 14:30 3.71 14.29 205 6.22 67.5 0.23 197.0
2014-06-06 14:00 3.58 6.67 285 6.30 67.5 0.29 202.0
2014-06-06 13:30 3.71 14.29 211 6.47 67.6 0.25 185.0
2014-06-06 13:00 3.54 14.29 205 6.44 67.6 0.45 200.0
2014-06-06 12:30 3.67 14.29 210 6.24 67.8 0.52 200.0
2014-06-06 12:00 3.64 15.38 205 6.64 67.8 0.56 195.0
2014-06-06 11:30 3.51 14.29 213 6.24 68.0 0.60 202.0
2014-06-06 11:00 3.44 14.29 207 6.35 68.2 0.74 198.0
2014-06-06 10:30 3.38 15.38 220 6.29 68.2 0.60 204.0
2014-06-06 10:00 3.31 14.29 199 6.23 68.2 0.64 202.0
2014-06-06 09:30 3.44 14.29 207 6.26 68.2 0.58 195.0
2014-06-06 09:00 3.31 14.29 205 6.11 68.2 0.62 194.0
2014-06-06 08:30 3.51 14.29 200 6.18 68.0 0.49 196.0
2014-06-06 08:00 3.15 15.38 206 5.90 68.2 0.54 186.0
2014-06-06 07:30 3.44 15.38 200 6.33 68.2 0.56 194.0
2014-06-06 07:00 3.38 15.38 210 6.07 68.2 0.68 187.0
2014-06-06 06:30 3.48 15.38 213 6.41 68.2 0.68 178.0
2014-06-06 06:00 3.41 14.29 215 6.28 68.4 0.60 177.0
2014-06-06 05:30 3.28 15.38 198 6.18 68.4 0.60 171.0
2014-06-06 05:00 3.25 15.38 212 6.23 68.4 0.62 171.0
2014-06-06 04:30 3.25 15.38 207 5.89 68.4 0.45 167.0
2014-06-06 04:00 3.25 15.38 205 5.83 68.5 0.64 167.0
2014-06-06 03:30 3.48 15.38 204 6.21 68.5 0.60 165.0
2014-06-06 03:00 3.28 15.38 212 5.58 68.7 0.49 185.0
2014-06-06 02:30 3.31 15.38 209 5.50 68.7 0.52 176.0
2014-06-06 02:00 3.22 16.67 200 5.70 68.7 0.51 170.0
2014-06-06 01:30 3.31 15.38 210 5.98 68.7 0.58 159.0
2014-06-06 01:00 3.31 15.38 210 6.11 68.5 0.56 165.0
2014-06-06 00:30 3.08 15.38 202 5.88 68.7 0.66 155.0
2014-06-06 00:00 3.31 15.38 209 5.77 68.9 0.58 153.0
2014-06-05 23:30 3.28 15.38 202 5.71 68.9 0.54 163.0
2014-06-05 23:00 3.31 15.38 195 5.77 68.7 0.62 144.0
2014-06-05 22:30 3.31 15.38 208 5.65 68.7 0.49 148.0
2014-06-05 22:00 3.41 15.38 206 5.82 68.7 0.62 148.0
2014-06-05 21:30 3.25 6.90 278 5.62 68.7 0.54 142.0
2014-06-05 21:00 3.28 15.38 215 5.65 68.5 0.49 145.0
2014-06-05 20:30 3.48 15.38 199 6.12 68.4 0.56 149.0
2014-06-05 20:00 3.61 15.38 204 5.93 68.2 0.37 161.0
2014-06-05 19:30 3.51 6.25 283 5.98 68.2 0.39 143.0
2014-06-05 19:00 3.51 15.38 211 5.88 68.2 0.21 165.0
2014-06-05 18:30 3.58 15.38 200 5.97 68.2 0.25 171.0
2014-06-05 18:00 3.74 15.38 201 6.23 68.2 0.21 187.0
2014-06-05 17:30 3.84 6.45 285 6.25 68.2 0.16 198.0
2014-06-05 17:00 3.67 6.25 290 6.10 68.0 0.25 182.0
2014-06-05 16:30 3.44 6.67 286 6.35 68.0 0.33 183.0
2014-06-05 16:00 3.41 15.38 202 6.32 67.6 0.19 210.0
2014-06-05 15:30 3.22 15.38 209 6.09 67.6 0.25 196.0
2014-06-05 15:00 3.15 15.38 212 6.30 67.6 0.33 212.0
2014-06-05 14:30 3.25 15.38 221 6.55 67.6 0.29 189.0
2014-06-05 14:00 3.12 15.38 217 6.17 67.6 0.51 205.0
2014-06-05 13:30 3.38 15.38 200 6.28 67.8 0.41 204.0
2014-06-05 13:00 3.31 16.67 212 6.69 67.6 0.51 204.0
2014-06-05 12:30 3.28 15.38 209 6.40 67.8 0.47 198.0
2014-06-05 12:00 3.25 14.29 201 6.41 68.0 0.49 204.0
2014-06-05 11:30 3.28 15.38 204 6.40 68.0 0.49 197.0
2014-06-05 11:00 3.22 14.29 200 6.43 68.2 0.56 200.0
2014-06-05 10:30 3.41 15.38 204 6.28 68.2 0.62 197.0
2014-06-05 10:00 3.25 13.33 202 6.34 68.2 0.62 192.0
2014-06-05 09:30 3.35 16.67 216 6.28 68.2 0.64 199.0
2014-06-05 09:00 3.31 16.67 215 6.54 68.2 0.62 193.0
2014-06-05 08:30 3.41 16.67 210 6.36 68.2 0.56 200.0
2014-06-05 08:00 3.38 15.38 204 6.29 68.2 0.58 192.0
2014-06-05 07:30 3.25 16.67 210 6.13 68.2 0.72 183.0
2014-06-05 07:00 3.15 14.29 202 6.12 68.2 0.60 185.0
2014-06-05 06:30 3.28 16.67 205 6.13 68.4 0.76 177.0
2014-06-05 06:00 3.22 15.38 206 6.03 68.4 0.56 172.0
2014-06-05 05:30 3.05 14.29 190 6.09 68.5 0.66 170.0
2014-06-05 05:00 2.95 16.67 215 6.00 68.5 0.51 175.0
2014-06-05 04:30 2.92 14.29 198 6.22 68.5 0.60 171.0
2014-06-05 04:00 2.92 15.38 201 5.95 68.7 0.52 169.0
2014-06-05 03:30 3.08 15.38 204 5.75 68.9 0.58 162.0
2014-06-05 03:00 2.99 14.29 198 5.35 68.9 0.64 166.0
2014-06-05 02:30 3.12 14.29 199 5.35 69.1 0.78 160.0
2014-06-05 02:00 3.48 16.67 202 5.75 69.3 0.84 166.0
2014-06-05 01:30 3.15 7.41 283 5.55 69.3 0.89 156.0
2014-06-05 01:00 2.95 16.67 197 5.48 69.3 0.99 154.0
2014-06-05 00:30 2.99 14.29 197 5.63 69.3 0.80 155.0
2014-06-05 00:00 2.89 16.67 206 5.49 69.3 0.72 156.0
2014-06-04 23:30 2.95 15.38 199 5.65 69.4 0.52 148.0
2014-06-04 23:00 2.89 15.38 205 5.42 69.4 0.54 165.0
2014-06-04 22:30 3.08 16.67 210 5.83 69.4 0.66 153.0
2014-06-04 22:00 3.25 14.29 204 6.07 69.4 0.62 163.0
2014-06-04 21:30 3.35 15.38 200 5.57 69.3 0.45 176.0
2014-06-04 21:00 3.35 16.67 204 6.01 69.3 0.43 169.0
2014-06-04 20:30 3.58 6.90 281 6.10 69.1 0.41 170.0
2014-06-04 20:00 3.51 15.38 204 6.17 68.9 0.29 154.0
2014-06-04 19:30 3.35 15.38 206 5.88 68.7 0.39 179.0
2014-06-04 19:00 3.35 16.67 206 5.96 68.4 0.45 162.0
2014-06-04 18:30 3.58 14.29 200 5.91 68.4 0.37 172.0
2014-06-04 18:00 3.64 6.06 284 5.95 68.2 0.45 165.0
2014-06-04 17:30 3.54 7.14 286 5.90 68.2 0.33 192.0
2014-06-04 17:00 3.77 5.56 288 5.92 68.5 0.31 187.0
2014-06-04 16:30 3.67 6.25 287 5.85 68.4 0.35 197.0
2014-06-04 16:00 3.64 6.45 278 5.62 68.2 0.54 196.0
2014-06-04 15:30 3.90 5.88 288 5.84 68.2 0.52 198.0
2014-06-04 15:00 3.74 6.45 283 5.93 68.0 0.45 193.0
2014-06-04 14:30 3.71 6.45 281 5.80 68.2 0.51 196.0
2014-06-04 14:00 3.97 5.56 281 5.84 68.2 0.49 206.0
2014-06-04 13:30 3.84 6.45 285 5.75 68.0 0.58 192.0
2014-06-04 13:00 3.87 6.25 284 5.87 68.2 0.49 188.0
2014-06-04 12:30 3.84 6.06 290 6.02 68.2 0.62 173.0
2014-06-04 12:00 3.77 5.13 283 5.74 68.2 0.47 187.0
2014-06-04 11:30 3.71 13.33 192 5.99 68.2 0.51 196.0
2014-06-04 11:00 3.54 6.45 275 5.76 68.2 0.47 201.0
2014-06-04 10:30 3.77 5.88 278 5.80 68.4 0.45 190.0
2014-06-04 10:00 3.64 6.06 283 6.00 68.4 0.66 203.0
2014-06-04 09:30 3.67 6.45 281 6.01 68.5 0.62 198.0
2014-06-04 09:00 3.81 5.88 277 5.74 68.7 0.52 197.0
2014-06-04 08:30 3.84 5.71 279 6.03 68.9 0.49 210.0
2014-06-04 08:00 3.67 5.71 274 5.58 68.7 0.54 200.0
2014-06-04 07:30 3.51 6.25 282 5.47 68.7 0.56 197.0
2014-06-04 07:00 3.61 5.71 277 5.68 68.7 0.49 176.0
2014-06-04 06:30 3.31 15.38 197 5.62 68.7 0.62 179.0
2014-06-04 06:00 3.31 5.26 276 5.50 68.9 0.62 174.0
2014-06-04 05:30 3.28 15.38 189 5.47 68.9 0.60 169.0
2014-06-04 05:00 3.35 5.00 286 5.38 68.9 0.72 178.0
2014-06-04 04:30 3.08 16.67 193 5.21 69.1 0.56 179.0
2014-06-04 04:00 3.15 6.67 274 5.14 69.1 0.70 179.0
2014-06-04 03:30 3.12 15.38 194 5.23 69.3 0.93 172.0
2014-06-04 03:00 2.95 15.38 206 5.18 69.3 0.64 170.0
2014-06-04 02:30 2.95 15.38 202 5.06 69.3 0.76 165.0
2014-06-04 02:00 2.99 18.18 201 4.85 69.4 0.82 164.0
2014-06-04 01:30 2.89 16.67 200 4.82 69.6 0.54 160.0
2014-06-04 01:00 2.95 15.38 199 4.85 69.6 0.84 162.0
2014-06-04 00:30 3.08 16.67 193 4.78 69.6 0.80 154.0
2014-06-04 00:00 3.15 15.38 203 4.89 69.8 0.80 150.0
2014-06-03 23:30 2.99 15.38 203 4.68 69.8 0.86 144.0
2014-06-03 23:00 3.02 16.67 205 4.96 70.0 0.76 151.0
2014-06-03 22:30 3.08 15.38 204 5.20 70.0 0.68 171.0
2014-06-03 22:00 3.22 6.90 280 4.97 70.2 0.68 171.0
2014-06-03 21:30 3.15 6.90 275 5.26 70.2 0.78 165.0
2014-06-03 21:00 3.25 16.67 204 5.45 70.0 0.51 172.0
2014-06-03 20:30 3.25 6.67 284 5.42 70.0 0.51 170.0
2014-06-03 20:00 3.25 6.67 283 5.56 69.8 0.60 162.0
2014-06-03 19:30 3.25 6.90 280 5.57 69.8 0.31 155.0
2014-06-03 19:00 3.28 6.90 278 5.72 69.8 0.41 169.0
2014-06-03 18:30 3.35 6.90 285 5.94 69.8 0.19 154.0
2014-06-03 18:00 3.38 6.45 285 5.89 69.6 0.25 176.0
2014-06-03 17:30 3.51 6.45 287 5.89 69.6 0.37 153.0
2014-06-03 17:00 3.35 6.67 287 5.97 69.4 0.27 175.0
2014-06-03 16:30 3.58 7.14 280 6.10 69.3 0.31 172.0
2014-06-03 16:00 3.58 6.25 286 6.11 69.1 0.23 187.0
2014-06-03 15:30 3.74 7.14 283 6.18 68.9 0.21 163.0
2014-06-03 15:00 3.61 6.90 282 6.10 68.9 0.25 169.0
2014-06-03 14:30 3.71 7.41 281 6.16 68.9 0.29 174.0
2014-06-03 14:00 3.74 5.88 291 6.09 68.9 0.14 216.0
2014-06-03 13:30 3.51 6.45 285 5.99 69.1 0.17 203.0
2014-06-03 13:00 3.61 6.90 280 5.91 69.3 0.25 233.0
2014-06-03 12:30 3.58 6.45 286 5.94 69.3 0.21 198.0
2014-06-03 12:00 3.58 6.06 280 5.80 69.3 0.21 199.0
2014-06-03 11:30 3.74 6.45 278 5.96 69.4 0.31 225.0
2014-06-03 11:00 3.64 6.06 279 5.82 69.3 0.33 219.0
2014-06-03 10:30 3.61 6.25 277 5.70 69.3 0.33 216.0
2014-06-03 10:00 3.84 5.88 277 5.71 69.3 0.27 215.0
2014-06-03 09:30 3.58 6.25 277 5.74 69.3 0.27 214.0
2014-06-03 09:00 3.41 6.45 275 5.64 69.4 0.27 227.0
2014-06-03 08:30 3.54 5.71 277 5.63 69.3 0.29 229.0
2014-06-03 08:00 3.74 5.88 279 5.64 69.1 0.37 213.0
2014-06-03 07:30 3.74 5.00 286 5.61 69.3 0.49 202.0
2014-06-03 07:00 3.84 6.25 280 5.60 69.3 0.45 202.0
2014-06-03 06:30 3.84 5.56 279 5.48 69.1 0.31 201.0
2014-06-03 06:00 3.81 5.56 277 5.46 68.9 0.37 198.0
2014-06-03 05:30 3.58 5.88 277 5.53 68.7 0.37 194.0
2014-06-03 05:00 3.74 5.71 277 5.55 68.7 0.39 194.0
2014-06-03 04:30 3.61 5.88 278 5.50 68.5 0.41 185.0
2014-06-03 04:00 3.38 6.06 270 5.30 68.5 0.39 178.0
2014-06-03 03:30 3.28 5.26 275 5.28 68.7 0.52 179.0
2014-06-03 03:00 3.48 5.26 272 5.24 69.1 0.56 182.0
2014-06-03 02:30 3.35 5.88 275 4.94 68.9 0.68 178.0
2014-06-03 02:00 3.28 16.67 196 5.04 69.1 0.60 166.0
2014-06-03 01:30 3.18 14.29 212 5.03 69.1 0.68 161.0
2014-06-03 01:00 3.18 6.67 279 4.84 69.3 0.68 151.0
2014-06-03 00:30 3.15 14.29 202 5.04 69.4 0.66 150.0
2014-06-03 00:00 3.31 14.29 194 5.20 69.6 0.56 156.0
2014-06-02 23:30 3.12 5.88 283 5.18 69.6 0.64 146.0
2014-06-02 23:00 3.44 6.67 275 5.39 69.6 0.64 154.0
2014-06-02 22:30 3.18 13.33 199 5.35 70.0 0.49 163.0
2014-06-02 22:00 3.31 6.67 279 5.34 70.2 0.70 153.0
2014-06-02 21:30 3.15 6.67 282 5.47 70.3 0.51 143.0
2014-06-02 21:00 3.15 14.29 198 5.72 70.3 0.47 144.0
2014-06-02 20:30 3.12 14.29 204 5.59 70.2 0.45 156.0
2014-06-02 20:00 3.22 14.29 190 5.63 70.2 0.41 136.0
2014-06-02 19:30 3.31 14.29 193 5.60 70.2 0.21 151.0
2014-06-02 19:00 3.31 14.29 201 5.61 70.3 0.14 149.0
2014-06-02 18:30 3.44 6.45 278 5.79 70.2 0.12 133.0
2014-06-02 18:00 3.31 14.29 196 6.10 70.2 0.10 111.0
2014-06-02 17:30 3.31 14.29 199 6.08 70.2 0.04 219.0
2014-06-02 17:00 3.31 14.29 197 6.03 70.0 0.12 160.0
2014-06-02 16:30 3.44 5.56 283 6.11 69.8 0.27 182.0
2014-06-02 16:00 3.35 14.29 203 6.27 69.8 0.23 213.0
2014-06-02 15:30 3.08 6.06 282 6.10 69.6 0.27 200.0
2014-06-02 15:00 3.35 6.25 275 6.27 69.6 0.27 202.0
2014-06-02 14:30 3.15 14.29 198 6.35 69.6 0.29 209.0
2014-06-02 14:00 3.22 14.29 198 6.36 69.6 0.27 213.0
2014-06-02 13:30 3.38 14.29 198 6.32 69.4 0.25 223.0
2014-06-02 13:00 3.18 14.29 203 6.23 69.3 0.27 207.0
2014-06-02 12:30 3.38 14.29 193 6.40 69.1 0.35 215.0
2014-06-02 12:00 3.28 11.76 233 6.38 69.1 0.27 205.0
2014-06-02 11:30 3.08 14.29 195 6.41 69.1 0.21 218.0
2014-06-02 11:00 3.15 14.29 193 6.08 69.3 0.31 220.0
2014-06-02 10:30 2.95 14.29 196 6.06 69.4 0.23 213.0
2014-06-02 10:00 3.25 14.29 196 5.91 69.4 0.51 218.0
2014-06-02 09:30 3.31 14.29 200 6.11 69.4 0.33 221.0
2014-06-02 09:00 3.31 14.29 192 5.85 69.4 0.35 230.0
2014-06-02 08:30 3.41 14.29 202 5.79 69.4 0.37 222.0
2014-06-02 08:00 3.58 14.29 195 5.88 69.6 0.35 215.0
2014-06-02 07:30 3.38 14.29 200 5.80 69.4 0.47 209.0
2014-06-02 07:00 3.51 14.29 198 6.00 69.4 0.37 227.0
2014-06-02 06:30 3.51 15.38 197 5.98 69.4 0.35 227.0
2014-06-02 06:00 3.44 15.38 197 5.92 69.4 0.33 218.0
2014-06-02 05:30 3.31 11.76 251 5.86 69.6 0.43 211.0
2014-06-02 05:00 3.44 14.29 196 6.24 69.6 0.33 190.0
2014-06-02 04:30 3.31 14.29 202 5.93 69.6 0.33 191.0
2014-06-02 04:00 3.18 14.29 194 5.68 69.6 0.56 184.0
2014-06-02 03:30 3.38 15.38 196 5.91 69.8 0.68 175.0
2014-06-02 03:00 3.28 14.29 196 5.79 70.0 0.58 175.0
2014-06-02 02:30 3.12 15.38 194 5.76 70.2 0.62 171.0
2014-06-02 02:00 3.18 7.41 275 5.89 70.2 0.54 171.0
2014-06-02 01:30 3.12 15.38 196 6.00 70.3 0.66 167.0
2014-06-02 01:00 3.12 14.29 202 6.13 70.5 0.51 166.0
2014-06-02 00:30 2.99 15.38 191 6.13 70.7 0.31 181.0
2014-06-02 00:00 3.35 15.38 206 6.42 70.7 0.51 177.0
2014-06-01 23:30 3.41 15.38 189 6.57 70.7 0.49 168.0
2014-06-01 23:00 3.51 14.29 203 6.48 70.7 0.43 193.0
2014-06-01 22:30 3.54 15.38 191 6.33 70.7 0.51 198.0
2014-06-01 22:00 3.77 15.38 206 6.51 70.7 0.60 183.0
2014-06-01 21:30 3.61 7.41 278 6.29 70.7 0.54 185.0
2014-06-01 21:00 3.81 15.38 193 6.61 70.7 0.62 184.0
2014-06-01 20:30 3.84 7.41 287 6.32 70.7 0.54 186.0
2014-06-01 20:00 3.77 7.69 282 6.50 70.5 0.47 171.0
2014-06-01 19:30 3.67 7.41 279 6.33 70.7 0.37 184.0
2014-06-01 19:00 3.74 15.38 186 6.70 70.5 0.19 181.0
2014-06-01 18:30 3.90 12.50 224 6.70 70.5 0.17 221.0
2014-06-01 18:00 3.81 7.41 283 6.46 70.5 0.19 225.0
2014-06-01 17:30 3.64 12.50 243 6.44 70.5 0.29 187.0
2014-06-01 17:00 3.54 8.33 278 6.74 70.2 0.31 186.0
2014-06-01 16:30 3.81 15.38 194 6.86 69.8 0.17 185.0
2014-06-01 16:00 3.81 15.38 209 6.77 69.6 0.23 195.0
2014-06-01 15:30 3.87 15.38 202 6.97 69.6 0.27 186.0
2014-06-01 15:00 3.74 15.38 198 6.71 69.6 0.37 193.0
2014-06-01 14:30 3.77 15.38 193 6.83 69.6 0.45 179.0
2014-06-01 14:00 3.94 15.38 201 6.98 69.6 0.43 194.0
2014-06-01 13:30 3.94 7.41 281 6.69 69.6 0.45 184.0
2014-06-01 13:00 3.77 6.67 280 6.54 69.6 0.23 175.0
2014-06-01 12:30 4.13 7.41 285 6.82 69.8 0.41 185.0
2014-06-01 12:00 3.94 15.38 197 6.90 69.8 0.39 195.0
2014-06-01 11:30 3.94 7.41 282 6.77 69.8 0.43 186.0
2014-06-01 11:00 4.20 15.38 198 7.02 69.8 0.35 201.0
2014-06-01 10:30 3.90 8.00 280 6.81 69.6 0.33 203.0
2014-06-01 10:00 3.77 7.41 277 6.73 69.6 0.31 206.0
2014-06-01 09:30 3.64 8.00 276 6.39 69.6 0.23 206.0
2014-06-01 09:00 3.81 13.33 216 6.86 69.6 0.31 209.0
2014-06-01 08:30 3.94 15.38 202 6.57 69.6 0.37 205.0
2014-06-01 08:00 3.84 8.00 278 6.38 69.6 0.37 227.0
2014-06-01 07:30 3.81 8.00 277 6.73 69.6 0.37 220.0
2014-06-01 07:00 3.77 15.38 203 6.84 69.4 0.35 198.0
2014-06-01 06:30 3.71 15.38 204 6.97 69.4 0.41 195.0
2014-06-01 06:00 3.67 15.38 198 6.88 69.3 0.31 201.0
2014-06-01 05:30 3.71 15.38 201 6.88 69.3 0.29 204.0
2014-06-01 05:00 3.61 8.33 286 6.67 69.1 0.41 205.0
2014-06-01 04:30 3.61 15.38 200 6.81 68.9 0.39 195.0
2014-06-01 04:00 3.48 15.38 207 6.69 69.1 0.49 178.0
2014-06-01 03:30 3.51 8.33 280 6.70 68.7 0.49 182.0
2014-06-01 03:00 3.31 16.67 190 6.56 68.7 0.39 144.0
2014-06-01 02:30 3.48 15.38 208 6.81 68.9 0.51 161.0
2014-06-01 02:00 3.38 15.38 201 6.78 68.9 0.45 158.0
2014-06-01 01:30 3.38 16.67 190 6.86 68.9 0.64 158.0
2014-06-01 01:00 3.54 8.00 279 6.85 68.9 0.51 145.0
2014-06-01 00:30 3.31 12.50 211 6.70 69.1 0.52 154.0
2014-06-01 00:00 3.38 13.33 209 6.74 69.1 0.51 140.0